Air Quality Table

TIMESTAMP NO2 SO2 O3 PM10 PM2.5 TEMP HUM AIRPRES WS WD NO
2021-11-30 01:00 0.84 µg/m3 2.79 µg/m3 75.96 µg/m3 19.17 µg/m3 13.35 µg/m3 12.29 °C 70.11 % 1,007.81 mbar 6.18 m/s 299.75 Deg 0.11 µg/m3
2021-11-30 00:00 1.1 µg/m3 2.71 µg/m3 79.73 µg/m3 22.73 µg/m3 21.39 µg/m3 11.58 °C 70.92 % 1,007.55 mbar 6.23 m/s 291.52 Deg 0.16 µg/m3
2021-11-29 23:00 1.93 µg/m3 2.77 µg/m3 79.38 µg/m3 23.87 µg/m3 19.91 µg/m3 10.83 °C 77.94 % 1,007.34 mbar 6.43 m/s 304.02 Deg 0.31 µg/m3
2021-11-29 22:00 2.49 µg/m3 2.56 µg/m3 78.74 µg/m3 36.99 µg/m3 18.87 µg/m3 11.43 °C 76.72 % 1,006.39 mbar 6.43 m/s 298.42 Deg 0.37 µg/m3
2021-11-29 21:00 4.05 µg/m3 2.94 µg/m3 76.87 µg/m3 20.09 µg/m3 9.59 µg/m3 12.01 °C 76.04 % 1,005.31 mbar 5.98 m/s 312.52 Deg 0.63 µg/m3
2021-11-29 20:00 4.03 µg/m3 2.68 µg/m3 77.64 µg/m3 19.45 µg/m3 8.86 µg/m3 14.08 °C 54.68 % 1,004.04 mbar 7.99 m/s 294.1 Deg 0.72 µg/m3
2021-11-29 19:00 5.01 µg/m3 2.81 µg/m3 75.93 µg/m3 19.68 µg/m3 14.18 µg/m3 14.5 °C 53.5 % 1,002.99 mbar 8.25 m/s 291.88 Deg 0.83 µg/m3
2021-11-29 18:00 6.37 µg/m3 2.77 µg/m3 71.17 µg/m3 27.29 µg/m3 7.28 µg/m3 14.46 °C 61.62 % 1,002.04 mbar 7.83 m/s 287.87 Deg 1.19 µg/m3
2021-11-29 17:00 8.76 µg/m3 2.88 µg/m3 67.58 µg/m3 28.87 µg/m3 4.47 µg/m3 12.65 °C 78.62 % 1,001.91 mbar 7.03 m/s 280.85 Deg 1.38 µg/m3
2021-11-29 16:00 7.84 µg/m3 2.8 µg/m3 68.55 µg/m3 21.09 µg/m3 5.33 µg/m3 14.53 °C 62.9 % 1,000.79 mbar 8.13 m/s 280.62 Deg 1.86 µg/m3
2021-11-29 15:00 6.83 µg/m3 2.82 µg/m3 69.93 µg/m3 18.09 µg/m3 5.45 µg/m3 15.38 °C 56.32 % 1,000.30 mbar 7.91 m/s 260.97 Deg 1.79 µg/m3
2021-11-29 14:00 4.46 µg/m3 2.82 µg/m3 70.92 µg/m3 19.32 µg/m3 6.55 µg/m3 15.31 °C 58.04 % 1,000.34 mbar 7.86 m/s 261.18 Deg 1.27 µg/m3
2021-11-29 13:00 5.43 µg/m3 2.96 µg/m3 70.11 µg/m3 20.61 µg/m3 5.67 µg/m3 15.44 °C 55.66 % 1,001.11 mbar 7.41 m/s 264.47 Deg 1.73 µg/m3
2021-11-29 12:00 5.84 µg/m3 2.59 µg/m3 68.66 µg/m3 21.78 µg/m3 5.81 µg/m3 15.62 °C 55.23 % 1,001.65 mbar 7.12 m/s 264.28 Deg 1.74 µg/m3
2021-11-29 11:00 6.47 µg/m3 2.87 µg/m3 67.44 µg/m3 17.17 µg/m3 4.97 µg/m3 15.46 °C 53.19 % 1,001.94 mbar 7.19 m/s 267.15 Deg 1.81 µg/m3
2021-11-29 10:00 8.08 µg/m3 2.68 µg/m3 65.6 µg/m3 19.43 µg/m3 6.48 µg/m3 14.86 °C 52.55 % 1,002.20 mbar 6.26 m/s 270.13 Deg 2.29 µg/m3
2021-11-29 09:00 9.56 µg/m3 2.7 µg/m3 64.59 µg/m3 15.72 µg/m3 9.34 µg/m3 14.52 °C 53.98 % 1,002.13 mbar 5.65 m/s 271.93 Deg 2.18 µg/m3
2021-11-29 08:00 12.38 µg/m3 2.91 µg/m3 62.39 µg/m3 8.25 µg/m3 7.16 µg/m3 14.15 °C 54.91 % 1,001.67 mbar 6.01 m/s 272.07 Deg 2.56 µg/m3
2021-11-29 07:00 9.03 µg/m3 2.48 µg/m3 64.4 µg/m3 6.81 µg/m3 5.45 µg/m3 14.06 °C 52.23 % 1,001.01 mbar 5.86 m/s 283 Deg 1.49 µg/m3
2021-11-29 06:00 3.82 µg/m3 2.54 µg/m3 67.38 µg/m3 8.59 µg/m3 6.03 µg/m3 14.23 °C 55.27 % 1,000.50 mbar 5.81 m/s 276.82 Deg 0.56 µg/m3
2021-11-29 05:00 1.48 µg/m3 2.5 µg/m3 69.96 µg/m3 8.95 µg/m3 5.33 µg/m3 13.91 °C 60.95 % 1,000.31 mbar 5.06 m/s 285.27 Deg 0.18 µg/m3
2021-11-29 04:00 1.2 µg/m3 2.53 µg/m3 70.05 µg/m3 7.58 µg/m3 7.54 µg/m3 13.78 °C 65.2 % 999.87 mbar 5.5 m/s 295.4 Deg 0.18 µg/m3
2021-11-29 03:00 0.98 µg/m3 2.86 µg/m3 72.42 µg/m3 8.28 µg/m3 9.81 µg/m3 14.18 °C 65.94 % 999.67 mbar 5.3 m/s 292.32 Deg 0.08 µg/m3
2021-11-29 02:00 1.35 µg/m3 2.33 µg/m3 71.85 µg/m3 11.27 µg/m3 8.37 µg/m3 13.44 °C 77.6 % 999.58 mbar 3.81 m/s 298.77 Deg 0.11 µg/m3
2021-11-29 01:00 1.91 µg/m3 2.45 µg/m3 70.14 µg/m3 14.05 µg/m3 5.35 µg/m3 13.7 °C 82.92 % 999.74 mbar 3.7 m/s 303.18 Deg 0.17 µg/m3
2021-11-29 00:00 3.65 µg/m3 2.27 µg/m3 70.42 µg/m3 18.73 µg/m3 6.04 µg/m3 14.06 °C 79.39 % 999.66 mbar 3.18 m/s 299.65 Deg 0.52 µg/m3
2021-11-28 23:00 4.68 µg/m3 2.71 µg/m3 68.9 µg/m3 16.97 µg/m3 5.04 µg/m3 14.5 °C 75.3 % 999.57 mbar 2.72 m/s 291.8 Deg 0.27 µg/m3
2021-11-28 22:00 5.96 µg/m3 2.29 µg/m3 71.43 µg/m3 10.79 µg/m3 5.4 µg/m3 14.92 °C 73.42 % 999.53 mbar 3.34 m/s 298.95 Deg 0.59 µg/m3
2021-11-28 21:00 6.72 µg/m3 2.46 µg/m3 73.53 µg/m3 7.77 µg/m3 5.89 µg/m3 15.33 °C 71.99 % 999.01 mbar 2.84 m/s 281.72 Deg 0.49 µg/m3
2021-11-28 20:00 8.38 µg/m3 2.45 µg/m3 73.36 µg/m3 8.15 µg/m3 5.81 µg/m3 15.41 °C 72.24 % 998.71 mbar 3.17 m/s 294.92 Deg 0.96 µg/m3
2021-11-28 19:00 8.53 µg/m3 2.24 µg/m3 72.86 µg/m3 8.71 µg/m3 5.92 µg/m3 15.05 °C 83.33 % 998.26 mbar 3.75 m/s 294.7 Deg 1.18 µg/m3
2021-11-28 18:00 6.89 µg/m3 2.34 µg/m3 72.56 µg/m3 7.58 µg/m3 5.9 µg/m3 14.99 °C 92.06 % 997.53 mbar 4.42 m/s 288.88 Deg 0.72 µg/m3
2021-11-28 17:00 5.36 µg/m3 2.33 µg/m3 72 µg/m3 10.49 µg/m3 4.64 µg/m3 15.52 °C 93.49 % 997.10 mbar 3.86 m/s 275.25 Deg 0.57 µg/m3
2021-11-28 16:00 6.1 µg/m3 2.36 µg/m3 71.27 µg/m3 11.44 µg/m3 5.02 µg/m3 16.88 °C 81.81 % 996.73 mbar 3.69 m/s 256.22 Deg 0.55 µg/m3
2021-11-28 15:00 6.39 µg/m3 2.21 µg/m3 70.85 µg/m3 11 µg/m3 5.9 µg/m3 16.61 °C 82.51 % 996.79 mbar 3.45 m/s 261.13 Deg 0.47 µg/m3
2021-11-28 14:00 3.56 µg/m3 2.34 µg/m3 73.98 µg/m3 11.82 µg/m3 6.33 µg/m3 16.34 °C 85.38 % 997.27 mbar 3.62 m/s 238.58 Deg 0.45 µg/m3
2021-11-28 13:00 1.5 µg/m3 2.19 µg/m3 77.12 µg/m3 18.16 µg/m3 5.84 µg/m3 15.87 °C 88.18 % 997.92 mbar 5.11 m/s 211.33 Deg 0.18 µg/m3
2021-11-28 12:00 3.37 µg/m3 2.33 µg/m3 76.98 µg/m3 17.79 µg/m3 8.68 µg/m3 14.96 °C 98.5 % 1,000.11 mbar 4.62 m/s 206.02 Deg 0.2 µg/m3
2021-11-28 11:00 4.5 µg/m3 2.31 µg/m3 76.78 µg/m3 17.52 µg/m3 14.09 µg/m3 14.11 °C 99.6 % 1,001.00 mbar 4.19 m/s 208.02 Deg 0.28 µg/m3
2021-11-28 10:00 5.09 µg/m3 2.41 µg/m3 77.4 µg/m3 22.3 µg/m3 24.54 µg/m3 13.36 °C 98.53 % 1,001.33 mbar 3.7 m/s 231.83 Deg 0.68 µg/m3
2021-11-28 09:00 5.12 µg/m3 2.49 µg/m3 78.19 µg/m3 20.18 µg/m3 21.42 µg/m3 13.49 °C 94.28 % 1,001.47 mbar 3.45 m/s 242.95 Deg 0.5 µg/m3
2021-11-28 08:00 5.84 µg/m3 2.46 µg/m3 79.31 µg/m3 24.5 µg/m3 15.29 µg/m3 13.77 °C 87.74 % 1,000.90 mbar 3.66 m/s 255.52 Deg 0.36 µg/m3
2021-11-28 07:00 3.18 µg/m3 2.68 µg/m3 81.51 µg/m3 19.95 µg/m3 11.43 µg/m3 13.85 °C 86.16 % 1,001.06 mbar 4.47 m/s 262.8 Deg 0.25 µg/m3
2021-11-28 06:00 2.22 µg/m3 2.54 µg/m3 83.4 µg/m3 27.01 µg/m3 16.13 µg/m3 14.82 °C 74.56 % 1,000.58 mbar 4.55 m/s 267.35 Deg 0.17 µg/m3
2021-11-28 05:00 1.17 µg/m3 2.42 µg/m3 83.68 µg/m3 28.83 µg/m3 13.9 µg/m3 17.26 °C 64.11 % 1,000.24 mbar 4.9 m/s 263.35 Deg 0.1 µg/m3
2021-11-28 04:00 1.64 µg/m3 2.45 µg/m3 82.29 µg/m3 27.07 µg/m3 19.36 µg/m3 17.93 °C 64.71 % 1,000.07 mbar 4.39 m/s 252.15 Deg 0.12 µg/m3
2021-11-28 03:00 1.32 µg/m3 2.57 µg/m3 84.66 µg/m3 28.43 µg/m3 21.15 µg/m3 17.85 °C 59.89 % 1,000.20 mbar 4.49 m/s 258.82 Deg 0.1 µg/m3
2021-11-28 02:00 1.28 µg/m3 2.47 µg/m3 85.02 µg/m3 32.92 µg/m3 17.35 µg/m3 18.08 °C 61.6 % 1,000.55 mbar 4.74 m/s 260.98 Deg 0.12 µg/m3
2021-11-28 01:00 1.9 µg/m3 2.59 µg/m3 83.78 µg/m3 31.2 µg/m3 10.69 µg/m3 18.07 °C 61.97 % 1,001.09 mbar 4.75 m/s 251.72 Deg 0.21 µg/m3
2021-11-28 00:00 2.65 µg/m3 2.57 µg/m3 82.32 µg/m3 44.93 µg/m3 8.18 µg/m3 18 °C 58.94 % 1,000.66 mbar 3.89 m/s 250.07 Deg 0.4 µg/m3
2021-11-27 23:00 3.2 µg/m3 2.47 µg/m3 82.82 µg/m3 44.45 µg/m3 10.93 µg/m3 18.44 °C 58.16 % 1,000.98 mbar 4.18 m/s 257.53 Deg 0.25 µg/m3
2021-11-27 22:00 3.93 µg/m3 2.37 µg/m3 81.6 µg/m3 38.67 µg/m3 6.45 µg/m3 18.24 °C 61.68 % 1,001.49 mbar 3.39 m/s 248.38 Deg 0.29 µg/m3
2021-11-27 21:00 9.33 µg/m3 2.46 µg/m3 76.02 µg/m3 34.16 µg/m3 5.28 µg/m3 17.91 °C 57.89 % 1,001.71 mbar 2.68 m/s 272.98 Deg 0.48 µg/m3
2021-11-27 20:00 9.4 µg/m3 2.58 µg/m3 76.19 µg/m3 35.21 µg/m3 8.16 µg/m3 17.88 °C 61.58 % 1,001.45 mbar 3.05 m/s 272.38 Deg 0.61 µg/m3
2021-11-27 19:00 19.76 µg/m3 1.48 µg/m3 63.69 µg/m3 46.04 µg/m3 8.07 µg/m3 17.09 °C 67.28 % 1,000.99 mbar 2.32 m/s 288.07 Deg 1.68 µg/m3
2021-11-27 18:00 26.71 µg/m3 2.63 µg/m3 52.84 µg/m3 35.33 µg/m3 8.55 µg/m3 16.59 °C 70.71 % 1,000.44 mbar 2.16 m/s 299.32 Deg 3.28 µg/m3
2021-11-27 17:00 20.85 µg/m3 2.57 µg/m3 57.06 µg/m3 20.52 µg/m3 12.6 µg/m3 17.19 °C 71.95 % 999.76 mbar 2.27 m/s 295.25 Deg 1.9 µg/m3
2021-11-27 16:00 16.23 µg/m3 2.39 µg/m3 65.49 µg/m3 24.57 µg/m3 17.83 µg/m3 18.01 °C 67.42 % 998.93 mbar 2.51 m/s 302.7 Deg 2.25 µg/m3
2021-11-27 15:00 12.37 µg/m3 2.47 µg/m3 70.9 µg/m3 32.66 µg/m3 16.84 µg/m3 17.99 °C 69.17 % 998.28 mbar 3.01 m/s 314.98 Deg 2.73 µg/m3
2021-11-27 14:00 17.45 µg/m3 2.5 µg/m3 64.97 µg/m3 30.87 µg/m3 15.54 µg/m3 17.63 °C 70.65 % 997.71 mbar 2.67 m/s 330.72 Deg 4.94 µg/m3
2021-11-27 13:00 23.4 µg/m3 2.26 µg/m3 59.74 µg/m3 40.43 µg/m3 14.03 µg/m3 16.39 °C 78.43 % 998.30 mbar 3.25 m/s 337.78 Deg 6.1 µg/m3
2021-11-27 12:00 47.73 µg/m3 2.77 µg/m3 35.86 µg/m3 50.21 µg/m3 21.73 µg/m3 15.67 °C 84.64 % 999.06 mbar 3.41 m/s 340.25 Deg 11.09 µg/m3
2021-11-27 11:00 45.74 µg/m3 2.5 µg/m3 35.41 µg/m3 65.95 µg/m3 24.9 µg/m3 15.12 °C 87.3 % 1,000.06 mbar 2.73 m/s 341.8 Deg 10.93 µg/m3
2021-11-27 10:00 56.14 µg/m3 2.8 µg/m3 23.71 µg/m3 70.11 µg/m3 40.06 µg/m3 14.61 °C 92.16 % 1,000.91 mbar 1.79 m/s 329.7 Deg 12.95 µg/m3
2021-11-27 09:00 25.58 µg/m3 2.53 µg/m3 53.59 µg/m3 82.6 µg/m3 21.79 µg/m3 15.27 °C 82.35 % 1,001.26 mbar 2.37 m/s 294.8 Deg 3.16 µg/m3
2021-11-27 08:00 18.94 µg/m3 2.67 µg/m3 59.17 µg/m3 88.72 µg/m3 24.56 µg/m3 18 °C 63.47 % 1,000.42 mbar 2.46 m/s 244.4 Deg 2 µg/m3
2021-11-27 07:00 15.49 µg/m3 2.53 µg/m3 59.61 µg/m3 82.11 µg/m3 21.04 µg/m3 18.18 °C 64.37 % 1,000.24 mbar 2.02 m/s 238.3 Deg 1.37 µg/m3
2021-11-27 06:00 7.81 µg/m3 2.38 µg/m3 68.17 µg/m3 51.38 µg/m3 13.34 µg/m3 18.12 °C 64.47 % 1,000.55 mbar 2.14 m/s 247.43 Deg 0.71 µg/m3
2021-11-27 05:00 2.38 µg/m3 2.7 µg/m3 74.54 µg/m3 39.86 µg/m3 5.57 µg/m3 18.09 °C 63.52 % 1,000.66 mbar 2.55 m/s 241.07 Deg 0.2 µg/m3
2021-11-27 04:00 2.2 µg/m3 2.48 µg/m3 75.3 µg/m3 24.03 µg/m3 4.82 µg/m3 17.98 °C 64.76 % 1,001.10 mbar 2.89 m/s 243.58 Deg 0.2 µg/m3
2021-11-27 03:00 1.47 µg/m3 2.63 µg/m3 76.12 µg/m3 14.08 µg/m3 5.62 µg/m3 17.95 °C 67.19 % 1,002.04 mbar 2.84 m/s 259.15 Deg 0.11 µg/m3
2021-11-27 02:00 1.97 µg/m3 2.55 µg/m3 77.49 µg/m3 12.93 µg/m3 3.95 µg/m3 17.87 °C 64.27 % 1,002.78 mbar 3.17 m/s 262.47 Deg 0.11 µg/m3
2021-11-27 01:00 3.39 µg/m3 2.56 µg/m3 78.71 µg/m3 18.91 µg/m3 3.82 µg/m3 17.27 °C 62.93 % 1,003.30 mbar 2.52 m/s 259.85 Deg 0.14 µg/m3
2021-11-27 00:00 7.36 µg/m3 2.39 µg/m3 74.44 µg/m3 13.58 µg/m3 4.44 µg/m3 16.8 °C 63.28 % 1,003.47 mbar 2.23 m/s 262.7 Deg 0.22 µg/m3
2021-11-26 23:00 10.88 µg/m3 2.45 µg/m3 70.14 µg/m3 16.25 µg/m3 3.12 µg/m3 16.69 °C 64.03 % 1,003.80 mbar 2.14 m/s 271.47 Deg 0.25 µg/m3
2021-11-26 22:00 12.65 µg/m3 2.74 µg/m3 70.02 µg/m3 24.34 µg/m3 3.1 µg/m3 16.77 °C 62.32 % 1,003.93 mbar 2.15 m/s 275.67 Deg 0.5 µg/m3
2021-11-26 21:00 13.15 µg/m3 2.46 µg/m3 70.43 µg/m3 17.28 µg/m3 3.74 µg/m3 16.94 °C 61.68 % 1,003.86 mbar 2.45 m/s 277.37 Deg 0.62 µg/m3
2021-11-26 20:00 15.08 µg/m3 2.52 µg/m3 69.63 µg/m3 15.38 µg/m3 5.36 µg/m3 16.99 °C 61.58 % 1,003.76 mbar 3.01 m/s 277.03 Deg 0.8 µg/m3
2021-11-26 19:00 13.82 µg/m3 2.59 µg/m3 69.99 µg/m3 19.41 µg/m3 4.36 µg/m3 16.94 °C 62.06 % 1,003.70 mbar 2.92 m/s 275.88 Deg 0.85 µg/m3
2021-11-26 18:00 22.13 µg/m3 2.27 µg/m3 61.44 µg/m3 19.62 µg/m3 2.54 µg/m3 16.81 °C 63.65 % 1,003.28 mbar 3.19 m/s 281.2 Deg 2.1 µg/m3
2021-11-26 17:00 22.57 µg/m3 2.51 µg/m3 61.84 µg/m3 12.7 µg/m3 3.68 µg/m3 17.13 °C 61.36 % 1,002.72 mbar 3.3 m/s 280.15 Deg 3.66 µg/m3
2021-11-26 16:00 18.43 µg/m3 2.5 µg/m3 66.67 µg/m3 11.86 µg/m3 4.28 µg/m3 17.95 °C 57.76 % 1,002.27 mbar 4.24 m/s 284.32 Deg 3.92 µg/m3
2021-11-26 15:00 14.14 µg/m3 2.29 µg/m3 69.45 µg/m3 18.38 µg/m3 6.7 µg/m3 18.55 °C 54.98 % 1,001.97 mbar 4.43 m/s 286.83 Deg 3.4 µg/m3
2021-11-26 14:00 11.66 µg/m3 2.36 µg/m3 70.46 µg/m3 16.67 µg/m3 6.55 µg/m3 18.92 °C 56.5 % 1,002.10 mbar 4.95 m/s 285.37 Deg 3.4 µg/m3
2021-11-26 13:00 10.32 µg/m3 2.42 µg/m3 72.71 µg/m3 16.26 µg/m3 5.28 µg/m3 19.25 °C 60.82 % 1,001.90 mbar 5.19 m/s 281.03 Deg 2.65 µg/m3
2021-11-26 12:00 9.14 µg/m3 2.53 µg/m3 67.1 µg/m3 17.9 µg/m3 3.87 µg/m3 19.27 °C 68.12 % 1,002.18 mbar 4.46 m/s 272.22 Deg 2.51 µg/m3
2021-11-26 11:00 14.17 µg/m3 2.34 µg/m3 61.36 µg/m3 26.04 µg/m3 5.34 µg/m3 19.2 °C 68.23 % 1,002.31 mbar 3.46 m/s 252.87 Deg 4.74 µg/m3
2021-11-26 10:00 24.9 µg/m3 2.48 µg/m3 52.25 µg/m3 41.89 µg/m3 6.82 µg/m3 18.52 °C 68.75 % 1,002.31 mbar 2.54 m/s 254.53 Deg 5.8 µg/m3
2021-11-26 09:00 45.12 µg/m3 2.45 µg/m3 34.32 µg/m3 25.73 µg/m3 9.83 µg/m3 17.82 °C 69.96 % 1,002.19 mbar 1.55 m/s 265.43 Deg 12.81 µg/m3
2021-11-26 08:00 69.74 µg/m3 2.81 µg/m3 11.09 µg/m3 19.47 µg/m3 16.25 µg/m3 16.01 °C 73.69 % 1,002.04 mbar 1.78 m/s 284.72 Deg 40.29 µg/m3
2021-11-26 07:00 67.21 µg/m3 2.64 µg/m3 9.66 µg/m3 13.02 µg/m3 10.1 µg/m3 15.34 °C 79.82 % 1,001.72 mbar 1.42 m/s 299.28 Deg 37.42 µg/m3
2021-11-26 06:00 27.65 µg/m3 2.4 µg/m3 43.14 µg/m3 12.01 µg/m3 9.23 µg/m3 15.14 °C 82.76 % 1,001.19 mbar 1.57 m/s 292.5 Deg 2.6 µg/m3
2021-11-26 05:00 5.35 µg/m3 2.28 µg/m3 69.4 µg/m3 9.72 µg/m3 12.05 µg/m3 15.16 °C 82.51 % 1,000.91 mbar 1.91 m/s 295.6 Deg 0.32 µg/m3
2021-11-26 04:00 2.4 µg/m3 2.06 µg/m3 73.57 µg/m3 8.17 µg/m3 7.78 µg/m3 16.19 °C 81.24 % 1,000.84 mbar 2.65 m/s 293.93 Deg 0.3 µg/m3
2021-11-26 03:00 1.61 µg/m3 2.28 µg/m3 71.58 µg/m3 10.23 µg/m3 7.48 µg/m3 16.19 °C 81.85 % 1,000.68 mbar 2.53 m/s 290.37 Deg 0.14 µg/m3
2021-11-26 02:00 2.02 µg/m3 2.09 µg/m3 70.89 µg/m3 13.89 µg/m3 9.63 µg/m3 16.31 °C 82.14 % 1,000.48 mbar 2.43 m/s 288.35 Deg 0.16 µg/m3
2021-11-26 01:00 4.03 µg/m3 2.21 µg/m3 65.44 µg/m3 16.41 µg/m3 13.23 µg/m3 16.26 °C 86.07 % 1,000.69 mbar 2.19 m/s 296.17 Deg 0.23 µg/m3
2021-11-26 00:00 12.37 µg/m3 2.15 µg/m3 50.33 µg/m3 21.1 µg/m3 10.69 µg/m3 16.13 °C 89.07 % 1,000.89 mbar 1.23 m/s 309.57 Deg 0.53 µg/m3
2021-11-25 23:00 17.93 µg/m3 2.09 µg/m3 45.54 µg/m3 17.68 µg/m3 11.42 µg/m3 16.39 °C 91.74 % 1,001.27 mbar 0.9 m/s 309.95 Deg 0.55 µg/m3
2021-11-25 22:00 29.78 µg/m3 2.31 µg/m3 43.43 µg/m3 17.15 µg/m3 15.89 µg/m3 17.04 °C 90.34 % 1,001.14 mbar 1.29 m/s 316.53 Deg 7.98 µg/m3
2021-11-25 21:00 24.62 µg/m3 2.21 µg/m3 49.09 µg/m3 23.22 µg/m3 23.49 µg/m3 17.21 °C 89.81 % 1,000.76 mbar 1.27 m/s 336.65 Deg 2.36 µg/m3
2021-11-25 20:00 21.49 µg/m3 2.17 µg/m3 52.99 µg/m3 23.15 µg/m3 19.07 µg/m3 17.3 °C 92.71 % 1,000.38 mbar 1.96 m/s 313.98 Deg 1.87 µg/m3
2021-11-25 19:00 49.83 µg/m3 2.43 µg/m3 25.3 µg/m3 27.85 µg/m3 7.08 µg/m3 18.16 °C 96.35 % 1,000.04 mbar 1.9 m/s 232.48 Deg 8.45 µg/m3
2021-11-25 18:00 58.07 µg/m3 2.09 µg/m3 17.22 µg/m3 18.52 µg/m3 4.93 µg/m3 18.88 °C 90.52 % 999.47 mbar 0.95 m/s 305.07 Deg 11.43 µg/m3
2021-11-25 17:00 26.13 µg/m3 2.07 µg/m3 48.8 µg/m3 20.32 µg/m3 6.22 µg/m3 19.59 °C 85.97 % 999.38 mbar 1.53 m/s 262.58 Deg 2.05 µg/m3
2021-11-25 16:00 13.39 µg/m3 2.28 µg/m3 64.67 µg/m3 21.2 µg/m3 8.17 µg/m3 20.57 °C 82.49 % 999.43 mbar 2.02 m/s 248.87 Deg 2.17 µg/m3
2021-11-25 15:00 10.61 µg/m3 2.05 µg/m3 66.76 µg/m3 29.58 µg/m3 10.66 µg/m3 20.99 °C 83.96 % 999.68 mbar 3.11 m/s 237.82 Deg 2.44 µg/m3
2021-11-25 14:00 5.63 µg/m3 2.2 µg/m3 68.19 µg/m3 18.37 µg/m3 14.58 µg/m3 19.79 °C 88.73 % 1,000.30 mbar 3.6 m/s 170.63 Deg 1.2 µg/m3
2021-11-25 13:00 10.77 µg/m3 2.08 µg/m3 65.22 µg/m3 19.4 µg/m3 11.69 µg/m3 18.84 °C 90.21 % 1,001.29 mbar 4.67 m/s 194.17 Deg 1.91 µg/m3
2021-11-25 12:00 8.65 µg/m3 2.38 µg/m3 70.06 µg/m3 18.5 µg/m3 14.63 µg/m3 17.34 °C 97.34 % 1,002.25 mbar 4.61 m/s 181.85 Deg 0.5 µg/m3
2021-11-25 11:00 6.47 µg/m3 2.02 µg/m3 74.76 µg/m3 18.74 µg/m3 9.44 µg/m3 19.02 °C 93.61 % 1,002.35 mbar 7.98 m/s 160.85 Deg 0.29 µg/m3
2021-11-25 10:00 0.65 µg/m3 1.83 µg/m3 78.25 µg/m3 14.97 µg/m3 8.25 µg/m3 18.85 °C 93.05 % 1,003.12 mbar 8.76 m/s 133.1 Deg 0.1 µg/m3
2021-11-25 09:00 1.34 µg/m3 2.23 µg/m3 76.53 µg/m3 18.34 µg/m3 6.78 µg/m3 17.89 °C 96.05 % 1,004.44 mbar 5.54 m/s 129.7 Deg 0.11 µg/m3
2021-11-25 08:00 0.79 µg/m3 2.2 µg/m3 75.08 µg/m3 10.97 µg/m3 4.41 µg/m3 17.43 °C 97.83 % 1,004.31 mbar 6.88 m/s 137.77 Deg 0.1 µg/m3
2021-11-25 07:00 0.26 µg/m3 2.36 µg/m3 74.58 µg/m3 9.41 µg/m3 3.07 µg/m3 17.16 °C 96.58 % 1,004.68 mbar 5.94 m/s 122.68 Deg 0.08 µg/m3
2021-11-25 06:00 0.86 µg/m3 2.16 µg/m3 83.92 µg/m3 9.06 µg/m3 4.94 µg/m3 18.1 °C 89.72 % 1,004.87 mbar 5.76 m/s 122.63 Deg 0.11 µg/m3
2021-11-25 05:00 0.78 µg/m3 2.3 µg/m3 87.88 µg/m3 7.03 µg/m3 7.5 µg/m3 17.77 °C 85.03 % 1,005.47 mbar 3.97 m/s 128.03 Deg 0.1 µg/m3
2021-11-25 04:00 0.82 µg/m3 2.23 µg/m3 88.78 µg/m3 6.89 µg/m3 6.54 µg/m3 17.65 °C 81.71 % 1,006.24 mbar 3.84 m/s 136.37 Deg 0.09 µg/m3
2021-11-25 03:00 1.03 µg/m3 2.52 µg/m3 87.14 µg/m3 8.32 µg/m3 6.02 µg/m3 17.41 °C 83.69 % 1,006.90 mbar 3.86 m/s 131.35 Deg 0.08 µg/m3
2021-11-25 02:00 0.73 µg/m3 2.22 µg/m3 86.38 µg/m3 10.17 µg/m3 8.18 µg/m3 17.28 °C 84.61 % 1,007.34 mbar 3.78 m/s 134.08 Deg 0.09 µg/m3
2021-11-25 01:00 0.98 µg/m3 2.35 µg/m3 82.18 µg/m3 15.64 µg/m3 9.86 µg/m3 17.04 °C 84.71 % 1,007.99 mbar 2.86 m/s 140.05 Deg 0.1 µg/m3
2021-11-25 00:00 1.3 µg/m3 2.19 µg/m3 80.4 µg/m3 14.54 µg/m3 14.7 µg/m3 17.08 °C 81.04 % 1,008.55 mbar 2.48 m/s 139.65 Deg 0.11 µg/m3
2021-11-24 23:00 2.44 µg/m3 2.17 µg/m3 80.51 µg/m3 20.56 µg/m3 10.55 µg/m3 17.12 °C 76.78 % 1,009.04 mbar 1.99 m/s 145.08 Deg 0.14 µg/m3
2021-11-24 22:00 5.68 µg/m3 2.19 µg/m3 78.52 µg/m3 32.59 µg/m3 8.15 µg/m3 17.13 °C 77.62 % 1,009.29 mbar 1.73 m/s 146.6 Deg 0.18 µg/m3
2021-11-24 21:00 12.23 µg/m3 2.27 µg/m3 73.82 µg/m3 28.53 µg/m3 11.76 µg/m3 17.43 °C 75.7 % 1,009.44 mbar 1.18 m/s 151.77 Deg 0.25 µg/m3
2021-11-24 20:00 18.23 µg/m3 2.35 µg/m3 66.41 µg/m3 27.8 µg/m3 8.09 µg/m3 17.63 °C 76.55 % 1,009.48 mbar 1.04 m/s 172.7 Deg 0.44 µg/m3
2021-11-24 19:00 24.61 µg/m3 2.31 µg/m3 59.83 µg/m3 15.89 µg/m3 9.54 µg/m3 17.64 °C 76.23 % 1,009.34 mbar 0.67 m/s 153.13 Deg 0.97 µg/m3
2021-11-24 18:00 18.93 µg/m3 2.31 µg/m3 69.1 µg/m3 14.43 µg/m3 9.23 µg/m3 17.89 °C 75.49 % 1,009.21 mbar 0.81 m/s 118.47 Deg 3.02 µg/m3
2021-11-24 17:00 8.23 µg/m3 2.47 µg/m3 74.28 µg/m3 19.13 µg/m3 9.43 µg/m3 18.13 °C 75.71 % 1,009.07 mbar 0.67 m/s 170.83 Deg 0.7 µg/m3
2021-11-24 16:00 16.52 µg/m3 2.48 µg/m3 76.63 µg/m3 21.95 µg/m3 12.15 µg/m3 18.99 °C 71.46 % 1,009.05 mbar 1.26 m/s 76.57 Deg 3.1 µg/m3
2021-11-24 15:00 13.39 µg/m3 2.41 µg/m3 78.81 µg/m3 23.76 µg/m3 15.98 µg/m3 19.42 °C 70.23 % 1,009.06 mbar 1.24 m/s 189.22 Deg 2.58 µg/m3
2021-11-24 14:00 13.93 µg/m3 2.5 µg/m3 76.98 µg/m3 28.47 µg/m3 6.83 µg/m3 19.29 °C 72.42 % 1,009.27 mbar 1.31 m/s 87.85 Deg 2.06 µg/m3
2021-11-24 13:00 18.9 µg/m3 2.41 µg/m3 69.25 µg/m3 22.21 µg/m3 4.7 µg/m3 18.86 °C 74.78 % 1,009.69 mbar 1.29 m/s 46.1 Deg 2.11 µg/m3
2021-11-24 12:00 22.81 µg/m3 2.67 µg/m3 65.28 µg/m3 28.4 µg/m3 6.8 µg/m3 19.37 °C 68.59 % 1,010.11 mbar 1.43 m/s 17.32 Deg 3.93 µg/m3
2021-11-24 11:00 34.81 µg/m3 2.55 µg/m3 54.51 µg/m3 46.09 µg/m3 9.58 µg/m3 19.45 °C 70.62 % 1,010.63 mbar 1.55 m/s 258.88 Deg 9.6 µg/m3
2021-11-24 10:00 53.4 µg/m3 2.85 µg/m3 36.58 µg/m3 56.96 µg/m3 12.9 µg/m3 18.98 °C 75.05 % 1,010.93 mbar 1.02 m/s 308.92 Deg 20.32 µg/m3
2021-11-24 09:00 82.26 µg/m3 3.07 µg/m3 13.95 µg/m3 47.86 µg/m3 11.81 µg/m3 17.87 °C 78.48 % 1,010.78 mbar 0.98 m/s 310 Deg 54.32 µg/m3
2021-11-24 08:00 83.89 µg/m3 2.97 µg/m3 8.44 µg/m3 32.6 µg/m3 17.76 µg/m3 16.35 °C 83.93 % 1,010.67 mbar 1.38 m/s 305.15 Deg 50.51 µg/m3
2021-11-24 07:00 60.35 µg/m3 2.72 µg/m3 19.35 µg/m3 16.21 µg/m3 16.71 µg/m3 15.86 °C 86.24 % 1,010.34 mbar 1.41 m/s 314.4 Deg 24.1 µg/m3
2021-11-24 06:00 31.94 µg/m3 2.53 µg/m3 44.43 µg/m3 10.58 µg/m3 13.51 µg/m3 16.05 °C 85.94 % 1,010.23 mbar 1.76 m/s 299.97 Deg 5.02 µg/m3
2021-11-24 05:00 12.3 µg/m3 2.56 µg/m3 54.89 µg/m3 12.74 µg/m3 16.63 µg/m3 15.73 °C 89.56 % 1,009.89 mbar 1.77 m/s 300.7 Deg 0.45 µg/m3
2021-11-24 04:00 10.06 µg/m3 2.35 µg/m3 55.94 µg/m3 16.48 µg/m3 10.18 µg/m3 15.72 °C 89.36 % 1,009.96 mbar 1.55 m/s 298.88 Deg 0.53 µg/m3
2021-11-24 03:00 14.13 µg/m3 2.3 µg/m3 49.32 µg/m3 12.98 µg/m3 10.31 µg/m3 15.51 °C 89.45 % 1,010.04 mbar 1.45 m/s 302.3 Deg 0.43 µg/m3
2021-11-24 02:00 11.05 µg/m3 2.68 µg/m3 53.2 µg/m3 15.39 µg/m3 11.95 µg/m3 15.69 °C 87.74 % 1,010.00 mbar 1.32 m/s 301.73 Deg 0.28 µg/m3
2021-11-24 01:00 15.81 µg/m3 2.56 µg/m3 49.77 µg/m3 22.29 µg/m3 18.89 µg/m3 15.8 °C 86.03 % 1,010.03 mbar 1.34 m/s 306.45 Deg 0.44 µg/m3
2021-11-24 00:00 23.49 µg/m3 2.43 µg/m3 43.79 µg/m3 34.73 µg/m3 20.8 µg/m3 16.01 °C 84.97 % 1,010.28 mbar 1.23 m/s 300.57 Deg 0.98 µg/m3
2021-11-23 23:00 32.22 µg/m3 2.63 µg/m3 37.66 µg/m3 36.31 µg/m3 17.43 µg/m3 16.19 °C 85.16 % 1,010.46 mbar 1.54 m/s 300.07 Deg 1.76 µg/m3
2021-11-23 22:00 39.32 µg/m3 2.48 µg/m3 33.39 µg/m3 47.22 µg/m3 19.09 µg/m3 16.41 °C 84.72 % 1,010.13 mbar 1.3 m/s 302.78 Deg 2.01 µg/m3
2021-11-23 21:00 55.86 µg/m3 2.46 µg/m3 20.31 µg/m3 47.34 µg/m3 23.46 µg/m3 16.71 °C 85.84 % 1,009.86 mbar 1.23 m/s 299.02 Deg 3.52 µg/m3
2021-11-23 20:00 73.45 µg/m3 2.61 µg/m3 11.97 µg/m3 42.48 µg/m3 12.21 µg/m3 17.39 °C 84.09 % 1,009.56 mbar 1.22 m/s 305.8 Deg 8.56 µg/m3
2021-11-23 19:00 50.38 µg/m3 2.45 µg/m3 39.43 µg/m3 25.69 µg/m3 8.78 µg/m3 18.05 °C 80.85 % 1,009.16 mbar 1.4 m/s 326.6 Deg 5.52 µg/m3
2021-11-23 18:00 38.19 µg/m3 2.25 µg/m3 52.73 µg/m3 21.7 µg/m3 12.03 µg/m3 18.45 °C 80.09 % 1,008.53 mbar 1.91 m/s 331.87 Deg 3.33 µg/m3
2021-11-23 17:00 34.49 µg/m3 2.53 µg/m3 56.5 µg/m3 20.09 µg/m3 21.55 µg/m3 19.33 °C 78.33 % 1,007.95 mbar 2.35 m/s 330.43 Deg 3.41 µg/m3
2021-11-23 16:00 21.97 µg/m3 2.26 µg/m3 66.51 µg/m3 26.59 µg/m3 11.54 µg/m3 20.49 °C 71.47 % 1,007.50 mbar 2.34 m/s 302.45 Deg 4.11 µg/m3
2021-11-23 15:00 20.28 µg/m3 2.39 µg/m3 59.59 µg/m3 28.63 µg/m3 6.98 µg/m3 21.23 °C 68.2 % 1,007.20 mbar 2.17 m/s 307.73 Deg 5.41 µg/m3
2021-11-23 14:00 13.61 µg/m3 2.37 µg/m3 62.1 µg/m3 27.22 µg/m3 9.65 µg/m3 21.45 °C 69.03 % 1,007.13 mbar 2.62 m/s 298.27 Deg 4.06 µg/m3
2021-11-23 13:00 12.64 µg/m3 2.15 µg/m3 60.42 µg/m3 26.58 µg/m3 12.06 µg/m3 21.45 °C 70.4 % 1,007.30 mbar 2.72 m/s 290.47 Deg 4.3 µg/m3
2021-11-23 12:00 11.32 µg/m3 2.48 µg/m3 62.29 µg/m3 26.22 µg/m3 11.35 µg/m3 21.11 °C 73.83 % 1,007.64 mbar 3.16 m/s 268 Deg 3.22 µg/m3
2021-11-23 11:00 12.07 µg/m3 2.32 µg/m3 62.09 µg/m3 34.76 µg/m3 12.56 µg/m3 21.18 °C 73.14 % 1,007.74 mbar 2.94 m/s 256.43 Deg 3.35 µg/m3
2021-11-23 10:00 13.64 µg/m3 2.57 µg/m3 57.63 µg/m3 47.52 µg/m3 13.19 µg/m3 20.75 °C 74.61 % 1,007.64 mbar 2.42 m/s 239.7 Deg 3.72 µg/m3
2021-11-23 09:00 38.64 µg/m3 2.7 µg/m3 32.76 µg/m3 48.1 µg/m3 19.57 µg/m3 19.53 °C 80.24 % 1,007.33 mbar 1.61 m/s 246.35 Deg 15.08 µg/m3
2021-11-23 08:00 62.07 µg/m3 4.76 µg/m3 24.04 µg/m3 30.24 µg/m3 10.73 µg/m3 18.57 °C 77.93 % 1,007.17 mbar 1.08 m/s 195.12 Deg 48.73 µg/m3
2021-11-23 07:00 44.51 µg/m3 2.5 µg/m3 29.96 µg/m3 10.77 µg/m3 4.78 µg/m3 17.68 °C 78.83 % 1,006.75 mbar 0.73 m/s 174.43 Deg 15.15 µg/m3
2021-11-23 06:00 33.13 µg/m3 2.51 µg/m3 41.94 µg/m3 6.97 µg/m3 4.75 µg/m3 18.35 °C 75.49 % 1,006.57 mbar 1.33 m/s 277.9 Deg 9.23 µg/m3
2021-11-23 05:00 4.71 µg/m3 2.48 µg/m3 72.49 µg/m3 6.9 µg/m3 6.95 µg/m3 18.49 °C 72.78 % 1,006.46 mbar 1.9 m/s 269.32 Deg 0.17 µg/m3
2021-11-23 04:00 2.58 µg/m3 2.18 µg/m3 73.74 µg/m3 9.81 µg/m3 9.52 µg/m3 18.4 °C 70.54 % 1,006.40 mbar 2.02 m/s 266.4 Deg 0.12 µg/m3
2021-11-23 03:00 1.88 µg/m3 2.49 µg/m3 74.98 µg/m3 12.27 µg/m3 15.54 µg/m3 18.44 °C 69.82 % 1,006.63 mbar 1.72 m/s 276.57 Deg 0.11 µg/m3
2021-11-23 02:00 2.26 µg/m3 2.34 µg/m3 71.29 µg/m3 15.14 µg/m3 9.65 µg/m3 18.22 °C 72.09 % 1,006.87 mbar 1.81 m/s 273.13 Deg 0.12 µg/m3
2021-11-23 01:00 5.69 µg/m3 2.2 µg/m3 65.06 µg/m3 20.61 µg/m3 11.4 µg/m3 18.08 °C 75.42 % 1,006.90 mbar 1.67 m/s 269.67 Deg 0.19 µg/m3
2021-11-23 00:00 7.61 µg/m3 2.3 µg/m3 61.78 µg/m3 16.36 µg/m3 16.02 µg/m3 18.04 °C 77.44 % 1,006.79 mbar 1.63 m/s 272.62 Deg 0.22 µg/m3
2021-11-22 23:00 11.03 µg/m3 2.24 µg/m3 61.04 µg/m3 21.36 µg/m3 23.68 µg/m3 18.05 °C 78.92 % 1,006.68 mbar 1.53 m/s 274.8 Deg 0.45 µg/m3
2021-11-22 22:00 14.11 µg/m3 2.17 µg/m3 58.12 µg/m3 27.31 µg/m3 19.9 µg/m3 18.02 °C 81.99 % 1,006.34 mbar 1.59 m/s 283.2 Deg 0.76 µg/m3
2021-11-22 21:00 17.17 µg/m3 2.25 µg/m3 53.94 µg/m3 40.73 µg/m3 15.51 µg/m3 18.18 °C 80.87 % 1,006.00 mbar 1.82 m/s 267.38 Deg 0.54 µg/m3
2021-11-22 20:00 25.98 µg/m3 2.3 µg/m3 45.88 µg/m3 51.65 µg/m3 17.35 µg/m3 18.49 °C 82.92 % 1,005.77 mbar 1.72 m/s 274.82 Deg 1.58 µg/m3
2021-11-22 19:00 24.22 µg/m3 2.22 µg/m3 21.43 µg/m3 43.72 µg/m3 10.85 µg/m3 18.62 °C 85.62 % 1,005.35 mbar 1.26 m/s 301.45 Deg 2.04 µg/m3
2021-11-22 18:00 -0.42 µg/m3 2.16 µg/m3 27.44 µg/m3 25.79 µg/m3 5.22 µg/m3 19.13 °C 79.79 % 1,004.94 mbar 1.1 m/s 280.12 Deg -0.13 µg/m3
2021-11-22 17:00 20.46 µg/m3 2.21 µg/m3 46.1 µg/m3 18.7 µg/m3 6.22 µg/m3 19.68 °C 74.98 % 1,004.43 mbar 1.43 m/s 266.85 Deg 1.58 µg/m3
2021-11-22 16:00 21.48 µg/m3 2.28 µg/m3 57.93 µg/m3 22.43 µg/m3 5.57 µg/m3 20.15 °C 76.96 % 1,004.11 mbar 2.04 m/s 270.57 Deg 2.61 µg/m3
2021-11-22 15:00 15.6 µg/m3 2.22 µg/m3 65.23 µg/m3 23.08 µg/m3 6.34 µg/m3 20.57 °C 76.4 % 1,004.00 mbar 2.59 m/s 271.25 Deg 3 µg/m3
2021-11-22 14:00 10.78 µg/m3 2.51 µg/m3 67.92 µg/m3 13.44 µg/m3 6.07 µg/m3 20.38 °C 78.48 % 1,004.27 mbar 1.98 m/s 233.57 Deg 1.85 µg/m3
2021-11-22 13:00 14.52 µg/m3 2.35 µg/m3 64.34 µg/m3 15.03 µg/m3 5.56 µg/m3 20.15 °C 78.01 % 1,004.82 mbar 2.01 m/s 244.87 Deg 2.71 µg/m3
2021-11-22 12:00 14.05 µg/m3 2.37 µg/m3 65.45 µg/m3 25.26 µg/m3 6.24 µg/m3 20.6 °C 73.66 % 1,005.23 mbar 2.31 m/s 270.92 Deg 3.32 µg/m3
2021-11-22 11:00 9.26 µg/m3 2.11 µg/m3 71.05 µg/m3 29 µg/m3 9.34 µg/m3 19.21 °C 84.99 % 1,005.83 mbar 1.6 m/s 247.51 Deg 1.61 µg/m3
2021-11-22 10:00 8.78 µg/m3 2.27 µg/m3 69.31 µg/m3 29.17 µg/m3 15.69 µg/m3 17.89 °C 88.38 % 1,006.27 mbar 1.82 m/s 147.65 Deg 1.12 µg/m3
2021-11-22 09:00 41.95 µg/m3 2.47 µg/m3 41.73 µg/m3 13.83 µg/m3 20.11 µg/m3 16.42 °C 90.59 % 1,005.85 mbar 1.12 m/s 98.93 Deg 18.09 µg/m3
2021-11-22 08:00 32.29 µg/m3 2.36 µg/m3 51.83 µg/m3 11.14 µg/m3 15.18 µg/m3 14.93 °C 91.98 % 1,005.51 mbar 2.06 m/s 242.68 Deg 5.13 µg/m3
2021-11-22 07:00 29.53 µg/m3 2.33 µg/m3 51.7 µg/m3 6.51 µg/m3 8.37 µg/m3 16.64 °C 84.08 % 1,005.14 mbar 1.89 m/s 225.92 Deg 3.08 µg/m3
2021-11-22 06:00 12.84 µg/m3 2.13 µg/m3 69.12 µg/m3 6.15 µg/m3 6.78 µg/m3 18.22 °C 78.35 % 1,004.79 mbar 2.21 m/s 284.25 Deg 0.91 µg/m3
2021-11-22 05:00 16.96 µg/m3 2.25 µg/m3 58.94 µg/m3 6.03 µg/m3 8.36 µg/m3 17.63 °C 82.6 % 1,004.66 mbar 1.71 m/s 321.25 Deg 0.43 µg/m3
2021-11-22 04:00 3.58 µg/m3 2.44 µg/m3 74.39 µg/m3 6.96 µg/m3 9.18 µg/m3 18.27 °C 83.87 % 1,004.75 mbar 2.38 m/s 219.15 Deg 0.17 µg/m3
2021-11-22 03:00 1.74 µg/m3 2.47 µg/m3 74.01 µg/m3 8.75 µg/m3 12.32 µg/m3 17.71 °C 84.08 % 1,005.63 mbar 2.05 m/s 200.55 Deg 0.13 µg/m3
2021-11-22 02:00 14.14 µg/m3 2.31 µg/m3 63.54 µg/m3 13.24 µg/m3 19.57 µg/m3 17.84 °C 84.48 % 1,006.15 mbar 2 m/s 201.95 Deg 0.23 µg/m3
2021-11-22 01:00 31.59 µg/m3 2.46 µg/m3 49.72 µg/m3 21.01 µg/m3 15.39 µg/m3 17.76 °C 84.43 % 1,006.62 mbar 2.3 m/s 189.58 Deg 0.44 µg/m3
2021-11-22 00:00 24.95 µg/m3 2.41 µg/m3 56.62 µg/m3 22.29 µg/m3 7.32 µg/m3 18.19 °C 82.33 % 1,007.18 mbar 3.25 m/s 190.2 Deg 0.35 µg/m3
2021-11-21 23:00 6.23 µg/m3 2.44 µg/m3 67.85 µg/m3 17.71 µg/m3 6.13 µg/m3 17.97 °C 75.99 % 1,007.53 mbar 1.61 m/s 215.45 Deg 0.19 µg/m3
2021-11-21 22:00 14.72 µg/m3 2.5 µg/m3 62.85 µg/m3 19.95 µg/m3 5.84 µg/m3 17.88 °C 73.36 % 1,007.51 mbar 1.14 m/s 249.02 Deg 0.35 µg/m3
2021-11-21 21:00 20.08 µg/m3 2.47 µg/m3 60.16 µg/m3 23.93 µg/m3 5.51 µg/m3 18.04 °C 68.99 % 1,007.87 mbar 1.34 m/s 269.52 Deg 0.73 µg/m3
2021-11-21 20:00 28.9 µg/m3 2.36 µg/m3 52.76 µg/m3 21.93 µg/m3 4.5 µg/m3 18.05 °C 68.14 % 1,008.03 mbar 1.38 m/s 273.08 Deg 1.57 µg/m3
2021-11-21 19:00 53.04 µg/m3 2.55 µg/m3 27.57 µg/m3 11.42 µg/m3 5.95 µg/m3 17.79 °C 72.49 % 1,007.77 mbar 0.79 m/s 295.45 Deg 3.73 µg/m3
2021-11-21 18:00 35.82 µg/m3 2.32 µg/m3 44.01 µg/m3 8.98 µg/m3 5.48 µg/m3 17.93 °C 72.93 % 1,007.78 mbar 1.32 m/s 297.45 Deg 2.38 µg/m3
2021-11-21 17:00 21.16 µg/m3 2.49 µg/m3 59.89 µg/m3 10.6 µg/m3 5.45 µg/m3 18.34 °C 69.64 % 1,007.81 mbar 1.56 m/s 282.73 Deg 1.73 µg/m3
2021-11-21 16:00 8.14 µg/m3 2.42 µg/m3 72.5 µg/m3 12.8 µg/m3 4.99 µg/m3 19.12 °C 68.91 % 1,007.96 mbar 2.42 m/s 275.98 Deg 0.92 µg/m3
2021-11-21 15:00 6.79 µg/m3 2.24 µg/m3 73.11 µg/m3 19.06 µg/m3 5.83 µg/m3 19.7 °C 69 % 1,008.09 mbar 2.62 m/s 268.48 Deg 1.12 µg/m3
2021-11-21 14:00 7.36 µg/m3 2.63 µg/m3 71.83 µg/m3 15.18 µg/m3 5.79 µg/m3 20.08 °C 69.78 % 1,008.34 mbar 2.27 m/s 283.17 Deg 1.6 µg/m3
2021-11-21 13:00 11.07 µg/m3 2.11 µg/m3 68.97 µg/m3 9.44 µg/m3 4.39 µg/m3 19.34 °C 74.76 % 1,009.13 mbar 1.62 m/s 261.08 Deg 1.55 µg/m3
2021-11-21 12:00 5.11 µg/m3 2.35 µg/m3 74.89 µg/m3 10.52 µg/m3 5.9 µg/m3 19.7 °C 69.83 % 1,009.82 mbar 2.47 m/s 215.63 Deg 1.01 µg/m3
2021-11-21 11:00 4.68 µg/m3 2.53 µg/m3 75.98 µg/m3 16.58 µg/m3 4.88 µg/m3 19.64 °C 68.19 % 1,010.40 mbar 2.71 m/s 218.68 Deg 0.97 µg/m3
2021-11-21 10:00 12.93 µg/m3 2.33 µg/m3 74.21 µg/m3 24.89 µg/m3 6.63 µg/m3 19.33 °C 70.32 % 1,010.68 mbar 1.77 m/s 205.6 Deg 2.32 µg/m3
2021-11-21 09:00 22.65 µg/m3 2.43 µg/m3 57.55 µg/m3 22.15 µg/m3 8.41 µg/m3 18.56 °C 79.01 % 1,010.93 mbar 1.17 m/s 174.93 Deg 3.89 µg/m3
2021-11-21 08:00 35.23 µg/m3 2.59 µg/m3 53.44 µg/m3 12.48 µg/m3 12.36 µg/m3 17.26 °C 79.08 % 1,011.10 mbar 1.11 m/s 187.97 Deg 6.77 µg/m3
2021-11-21 07:00 23.78 µg/m3 2.32 µg/m3 59.46 µg/m3 10.56 µg/m3 7.28 µg/m3 16.94 °C 79.13 % 1,011.08 mbar 0.72 m/s 210.59 Deg 2.59 µg/m3
2021-11-21 06:00 19.52 µg/m3 2.63 µg/m3 51.58 µg/m3 10.4 µg/m3 7.19 µg/m3 16.05 °C 84.55 % 1,011.10 mbar 0.52 m/s 294.74 Deg 1.49 µg/m3
2021-11-21 05:00 10.19 µg/m3 2.56 µg/m3 59.79 µg/m3 10.76 µg/m3 9.19 µg/m3 15.95 °C 85.11 % 1,011.17 mbar 1.19 m/s 322.83 Deg 0.31 µg/m3
2021-11-21 04:00 8.43 µg/m3 2.52 µg/m3 65.7 µg/m3 12.11 µg/m3 15.36 µg/m3 16.29 °C 84.12 % 1,011.33 mbar 1.23 m/s 316.45 Deg 0.27 µg/m3
2021-11-21 03:00 8.61 µg/m3 2.47 µg/m3 68.38 µg/m3 13.3 µg/m3 24.63 µg/m3 16.21 °C 83.93 % 1,011.84 mbar 1.22 m/s 320.02 Deg 0.26 µg/m3
2021-11-21 02:00 14.37 µg/m3 2.38 µg/m3 56.55 µg/m3 15.71 µg/m3 25.33 µg/m3 16.01 °C 84.2 % 1,012.41 mbar 1.47 m/s 308.5 Deg 0.38 µg/m3
2021-11-21 01:00 30.35 µg/m3 2.55 µg/m3 41.57 µg/m3 23.63 µg/m3 21.98 µg/m3 16.06 °C 83.64 % 1,013.00 mbar 1.38 m/s 312.32 Deg 0.98 µg/m3
2021-11-21 00:00 23.46 µg/m3 2.52 µg/m3 53.7 µg/m3 42.48 µg/m3 34.84 µg/m3 16.5 °C 80.02 % 1,013.39 mbar 1.22 m/s 314.32 Deg 0.96 µg/m3
2021-11-20 23:00 40.62 µg/m3 2.8 µg/m3 32.87 µg/m3 53.45 µg/m3 27.9 µg/m3 16.3 °C 80.11 % 1,013.57 mbar 1.39 m/s 306.57 Deg 3.51 µg/m3
2021-11-20 22:00 52.96 µg/m3 2.63 µg/m3 22.01 µg/m3 60.19 µg/m3 31.45 µg/m3 16.21 °C 81.01 % 1,013.60 mbar 1.35 m/s 309.17 Deg 5.7 µg/m3
2021-11-20 21:00 63.54 µg/m3 2.8 µg/m3 13.7 µg/m3 58.88 µg/m3 16.11 µg/m3 16.33 °C 79.91 % 1,013.71 mbar 1.14 m/s 306.93 Deg 9.05 µg/m3
2021-11-20 20:00 66.3 µg/m3 2.53 µg/m3 12 µg/m3 39.36 µg/m3 16 µg/m3 16.63 °C 76.48 % 1,013.65 mbar 1.18 m/s 296.4 Deg 11.98 µg/m3
2021-11-20 19:00 76.92 µg/m3 2.86 µg/m3 8.33 µg/m3 16.48 µg/m3 7.57 µg/m3 17.21 °C 73.61 % 1,013.70 mbar 0.92 m/s 308.62 Deg 19.31 µg/m3
2021-11-20 18:00 48.14 µg/m3 2.61 µg/m3 37.73 µg/m3 10.47 µg/m3 2.72 µg/m3 17.87 °C 69.86 % 1,013.84 mbar 0.9 m/s 342.23 Deg 7.72 µg/m3
2021-11-20 17:00 20.03 µg/m3 2.65 µg/m3 63.85 µg/m3 10.72 µg/m3 3.94 µg/m3 18.46 °C 66.48 % 1,013.90 mbar 1.5 m/s 254.89 Deg 2.52 µg/m3
2021-11-20 16:00 11.3 µg/m3 2.43 µg/m3 72.18 µg/m3 10.84 µg/m3 5.07 µg/m3 19.05 °C 64.96 % 1,013.90 mbar 2.36 m/s 11.7 Deg 2.82 µg/m3
2021-11-20 15:00 9 µg/m3 2.53 µg/m3 75.86 µg/m3 12.3 µg/m3 4.32 µg/m3 19.4 °C 64.62 % 1,014.07 mbar 2.7 m/s 98.9 Deg 1.98 µg/m3
2021-11-20 14:00 7.53 µg/m3 2.38 µg/m3 76.45 µg/m3 15.45 µg/m3 5.41 µg/m3 19.72 °C 61.79 % 1,014.47 mbar 2.46 m/s 180.02 Deg 1.94 µg/m3
2021-11-20 13:00 8.45 µg/m3 2.57 µg/m3 73.25 µg/m3 19.62 µg/m3 7.83 µg/m3 19.64 °C 63.26 % 1,015.01 mbar 2.8 m/s 91.95 Deg 2.34 µg/m3
2021-11-20 12:00 11.33 µg/m3 2.45 µg/m3 69.41 µg/m3 32.62 µg/m3 9.93 µg/m3 19.5 °C 67.87 % 1,015.83 mbar 2.73 m/s 183.78 Deg 7.85 µg/m3
2021-11-20 11:00 13.85 µg/m3 2.5 µg/m3 65.2 µg/m3 55.9 µg/m3 15.44 µg/m3 19.21 °C 76.83 % 1,016.39 mbar 2.64 m/s 94.37 Deg 4.77 µg/m3
2021-11-20 10:00 43.24 µg/m3 2.66 µg/m3 37.07 µg/m3 67.35 µg/m3 25.91 µg/m3 18.85 °C 79.26 % 1,016.55 mbar 2.05 m/s 328.4 Deg 12.79 µg/m3
2021-11-20 09:00 70.32 µg/m3 3.15 µg/m3 14.73 µg/m3 51.19 µg/m3 37.74 µg/m3 17.86 °C 81.96 % 1,016.49 mbar 1.28 m/s 302.95 Deg 46.8 µg/m3
2021-11-20 08:00 79.03 µg/m3 3.29 µg/m3 6.46 µg/m3 28.81 µg/m3 21.87 µg/m3 16.17 °C 85.96 % 1,016.51 mbar 1.74 m/s 301.28 Deg 52.01 µg/m3
2021-11-20 07:00 55.91 µg/m3 2.74 µg/m3 15.45 µg/m3 24.31 µg/m3 13.51 µg/m3 15.65 °C 86.13 % 1,016.48 mbar 1.69 m/s 306.83 Deg 15.72 µg/m3
2021-11-20 06:00 19.92 µg/m3 2.67 µg/m3 48.98 µg/m3 17.04 µg/m3 12.51 µg/m3 16.03 °C 84.72 % 1,016.27 mbar 1.65 m/s 305 Deg 1.4 µg/m3
2021-11-20 05:00 15.93 µg/m3 2.52 µg/m3 52.27 µg/m3 15.92 µg/m3 15.77 µg/m3 16.38 °C 83.68 % 1,016.40 mbar 1.79 m/s 290.93 Deg 1.16 µg/m3
2021-11-20 04:00 15.41 µg/m3 2.52 µg/m3 45.53 µg/m3 18.5 µg/m3 14.65 µg/m3 16.45 °C 83.32 % 1,016.68 mbar 1.83 m/s 292.95 Deg 0.65 µg/m3
2021-11-20 03:00 16.05 µg/m3 2.61 µg/m3 51.69 µg/m3 17.92 µg/m3 13.8 µg/m3 16.7 °C 82.21 % 1,017.12 mbar 1.62 m/s 291.33 Deg 0.57 µg/m3
2021-11-20 02:00 31.86 µg/m3 2.65 µg/m3 33.61 µg/m3 24 µg/m3 19.82 µg/m3 16.32 °C 84.68 % 1,017.49 mbar 1.77 m/s 310.73 Deg 0.98 µg/m3
2021-11-20 01:00 33.21 µg/m3 2.55 µg/m3 34.86 µg/m3 34.59 µg/m3 18.36 µg/m3 16.98 °C 80.76 % 1,017.62 mbar 0.93 m/s 249.83 Deg 2.06 µg/m3
2021-11-20 00:00 23.15 µg/m3 2.56 µg/m3 52.96 µg/m3 33.19 µg/m3 12.72 µg/m3 17.31 °C 79.52 % 1,017.91 mbar 1.08 m/s 43.12 Deg 1.23 µg/m3
2021-11-19 23:00 29.49 µg/m3 2.38 µg/m3 45.81 µg/m3 28.64 µg/m3 10.69 µg/m3 17.51 °C 79.73 % 1,017.95 mbar 1.02 m/s 38.07 Deg 2.23 µg/m3
2021-11-19 22:00 27.88 µg/m3 2.7 µg/m3 50.9 µg/m3 21.97 µg/m3 10.21 µg/m3 17.61 °C 79.17 % 1,017.81 mbar 1.06 m/s 35.8 Deg 3.8 µg/m3
2021-11-19 21:00 16.62 µg/m3 2.6 µg/m3 63.89 µg/m3 25.22 µg/m3 8.39 µg/m3 17.69 °C 78.75 % 1,017.47 mbar 1.4 m/s 104.72 Deg 0.61 µg/m3
2021-11-19 20:00 13.36 µg/m3 2.42 µg/m3 68.22 µg/m3 22.4 µg/m3 4.87 µg/m3 17.77 °C 78.46 % 1,017.46 mbar 1.49 m/s 109.58 Deg 0.96 µg/m3
2021-11-19 19:00 17.5 µg/m3 2.11 µg/m3 66.76 µg/m3 14.64 µg/m3 5.01 µg/m3 17.94 °C 77.67 % 1,017.22 mbar 1.86 m/s 120.75 Deg 0.77 µg/m3
2021-11-19 18:00 21.21 µg/m3 2.39 µg/m3 63.66 µg/m3 13.48 µg/m3 4.9 µg/m3 17.91 °C 78.18 % 1,016.87 mbar 1.93 m/s 29.42 Deg 1.13 µg/m3
2021-11-19 17:00 15.87 µg/m3 2.35 µg/m3 69.53 µg/m3 14.17 µg/m3 4.88 µg/m3 18.37 °C 77.24 % 1,016.56 mbar 1.84 m/s 120.57 Deg 0.99 µg/m3
2021-11-19 16:00 15.95 µg/m3 2.52 µg/m3 71.31 µg/m3 18.46 µg/m3 5.55 µg/m3 18.72 °C 77.31 % 1,016.59 mbar 2.19 m/s 93.35 Deg 3.08 µg/m3
2021-11-19 15:00 11.16 µg/m3 2.61 µg/m3 77.22 µg/m3 18.31 µg/m3 7.21 µg/m3 18.94 °C 77.92 % 1,016.39 mbar 2.65 m/s 105.55 Deg 1.5 µg/m3
2021-11-19 14:00 9.77 µg/m3 2.33 µg/m3 79.05 µg/m3 14.49 µg/m3 7.46 µg/m3 19.44 °C 76.63 % 1,016.34 mbar 2.28 m/s 90.52 Deg 1.39 µg/m3
2021-11-19 13:00 9.61 µg/m3 2.52 µg/m3 79.49 µg/m3 17.54 µg/m3 7.49 µg/m3 19.64 °C 73.93 % 1,016.60 mbar 2.89 m/s 110.88 Deg 1.54 µg/m3
2021-11-19 12:00 11.64 µg/m3 2.44 µg/m3 74.37 µg/m3 25.74 µg/m3 10.91 µg/m3 19.51 °C 75.07 % 1,017.13 mbar 2.21 m/s 258.17 Deg 2.26 µg/m3
2021-11-19 11:00 14.46 µg/m3 2.6 µg/m3 68.81 µg/m3 39.76 µg/m3 16.78 µg/m3 19.3 °C 74.54 % 1,017.44 mbar 2.05 m/s 33.22 Deg 3.19 µg/m3
2021-11-19 10:00 20.22 µg/m3 2.66 µg/m3 59.81 µg/m3 57.17 µg/m3 21.89 µg/m3 19.26 °C 73.66 % 1,017.43 mbar 2.01 m/s 22.17 Deg 9.34 µg/m3
2021-11-19 09:00 75.2 µg/m3 3.46 µg/m3 9.72 µg/m3 47.14 µg/m3 16.01 µg/m3 17.85 °C 81.81 % 1,017.24 mbar 1.24 m/s 330.63 Deg 61.32 µg/m3
2021-11-19 08:00 78.23 µg/m3 3.46 µg/m3 3.64 µg/m3 29.21 µg/m3 7.03 µg/m3 16 °C 88.61 % 1,016.90 mbar 1.8 m/s 303.22 Deg 70.82 µg/m3
2021-11-19 07:00 63.01 µg/m3 2.96 µg/m3 10.96 µg/m3 20.65 µg/m3 6.91 µg/m3 15.85 °C 88.82 % 1,016.40 mbar 1.29 m/s 320.3 Deg 28.8 µg/m3
2021-11-19 06:00 33.51 µg/m3 2.41 µg/m3 35.09 µg/m3 11.56 µg/m3 11.21 µg/m3 15.9 °C 88.09 % 1,016.06 mbar 1.48 m/s 314.53 Deg 4.19 µg/m3
2021-11-19 05:00 14.23 µg/m3 2.41 µg/m3 52.75 µg/m3 8.46 µg/m3 18.37 µg/m3 15.83 °C 88.22 % 1,015.91 mbar 1.98 m/s 307.05 Deg 0.58 µg/m3
2021-11-19 04:00 8.76 µg/m3 2.44 µg/m3 58.25 µg/m3 10.11 µg/m3 13.61 µg/m3 15.77 °C 89.61 % 1,015.92 mbar 1.99 m/s 302.15 Deg 0.26 µg/m3
2021-11-19 03:00 8.83 µg/m3 2.56 µg/m3 54.67 µg/m3 11.65 µg/m3 14.27 µg/m3 15.8 °C 91.19 % 1,016.14 mbar 1.78 m/s 301.38 Deg 0.29 µg/m3
2021-11-19 02:00 10.21 µg/m3 2.48 µg/m3 52.51 µg/m3 13.83 µg/m3 22.85 µg/m3 16.11 °C 90.36 % 1,016.24 mbar 1.48 m/s 309.4 Deg 0.28 µg/m3
2021-11-19 01:00 14.33 µg/m3 2.63 µg/m3 46.78 µg/m3 19.34 µg/m3 12.24 µg/m3 16.2 °C 89.61 % 1,016.38 mbar 1.26 m/s 310.47 Deg 0.38 µg/m3
2021-11-19 00:00 17.83 µg/m3 2.52 µg/m3 47.36 µg/m3 25.52 µg/m3 10.9 µg/m3 16.39 °C 88.4 % 1,016.48 mbar 1.61 m/s 303.75 Deg 0.67 µg/m3
2021-11-18 23:00 23.67 µg/m3 2.6 µg/m3 44.27 µg/m3 40.01 µg/m3 17.8 µg/m3 16.59 °C 87.14 % 1,016.59 mbar 1.51 m/s 295.4 Deg 1.15 µg/m3
2021-11-18 22:00 31.94 µg/m3 2.57 µg/m3 37.88 µg/m3 46.27 µg/m3 30.96 µg/m3 16.84 °C 85.3 % 1,016.59 mbar 1.43 m/s 296.23 Deg 1.69 µg/m3
2021-11-18 21:00 54.31 µg/m3 2.75 µg/m3 20.94 µg/m3 51.71 µg/m3 29.16 µg/m3 17.12 °C 83.77 % 1,016.29 mbar 1.33 m/s 292.93 Deg 5.32 µg/m3
2021-11-18 20:00 71.31 µg/m3 2.83 µg/m3 11.19 µg/m3 54.42 µg/m3 34.52 µg/m3 17.54 °C 81.71 % 1,015.79 mbar 1.13 m/s 317.68 Deg 10.23 µg/m3
2021-11-18 19:00 80.3 µg/m3 3.06 µg/m3 5.16 µg/m3 50.7 µg/m3 16.29 µg/m3 17.86 °C 79.5 % 1,015.53 mbar 1.13 m/s 304.37 Deg 19.98 µg/m3
2021-11-18 18:00 81.11 µg/m3 2.74 µg/m3 8.84 µg/m3 34.43 µg/m3 6.06 µg/m3 18.45 °C 74.8 % 1,014.96 mbar 0.99 m/s 310.8 Deg 13.55 µg/m3
2021-11-18 17:00 45.18 µg/m3 2.46 µg/m3 45.13 µg/m3 24.64 µg/m3 6.13 µg/m3 19.35 °C 68.61 % 1,014.43 mbar 1.28 m/s 304.03 Deg 4.81 µg/m3
2021-11-18 16:00 27.96 µg/m3 2.59 µg/m3 62.51 µg/m3 22.39 µg/m3 7.51 µg/m3 20.11 °C 64.27 % 1,014.08 mbar 2.16 m/s 311.57 Deg 4.8 µg/m3
2021-11-18 15:00 24.29 µg/m3 2.41 µg/m3 65.95 µg/m3 21.26 µg/m3 9.5 µg/m3 20.21 °C 62.83 % 1,013.91 mbar 2.2 m/s 307.67 Deg 4.87 µg/m3
2021-11-18 14:00 19.52 µg/m3 2.43 µg/m3 68.93 µg/m3 16.69 µg/m3 11.31 µg/m3 20.13 °C 63.39 % 1,013.97 mbar 2.47 m/s 306.35 Deg 3.66 µg/m3
2021-11-18 13:00 16.84 µg/m3 2.11 µg/m3 0 µg/m3 19.23 µg/m3 15.02 µg/m3 20.23 °C 65.94 % 1,014.19 mbar 2 m/s 311.61 Deg 9.25 µg/m3
2021-11-18 12:00 18.7 µg/m3 2.65 µg/m3 72.45 µg/m3 36.61 µg/m3 26.07 µg/m3 20.46 °C 63.66 % 1,014.67 mbar 2.04 m/s 301.97 Deg 4.72 µg/m3
2021-11-18 11:00 25.35 µg/m3 2.45 µg/m3 63.36 µg/m3 48.08 µg/m3 41.6 µg/m3 20.16 °C 66.4 % 1,014.84 mbar 1.83 m/s 307.7 Deg 6.23 µg/m3
2021-11-18 10:00 36.87 µg/m3 2.93 µg/m3 50.7 µg/m3 79.86 µg/m3 25.73 µg/m3 19.86 °C 68.47 % 1,014.46 mbar 1.68 m/s 310.64 Deg 10.48 µg/m3
2021-11-18 09:00 75.96 µg/m3 3.12 µg/m3 19.21 µg/m3 76.01 µg/m3 21.35 µg/m3 19.01 °C 73.02 % 1,014.12 mbar 0.85 m/s 302.73 Deg 43.11 µg/m3
2021-11-18 08:00 89.62 µg/m3 3.12 µg/m3 9.17 µg/m3 40.64 µg/m3 10.23 µg/m3 17.47 °C 76.99 % 1,013.81 mbar 1.65 m/s 300.77 Deg 50.92 µg/m3
2021-11-18 07:00 69.18 µg/m3 2.77 µg/m3 20.51 µg/m3 21.05 µg/m3 5.05 µg/m3 16.89 °C 78.53 % 1,013.24 mbar 1.71 m/s 296.13 Deg 19.14 µg/m3
2021-11-18 06:00 32.77 µg/m3 2.44 µg/m3 44.79 µg/m3 14.42 µg/m3 4.02 µg/m3 16.43 °C 79.62 % 1,012.50 mbar 1.74 m/s 301.87 Deg 3.23 µg/m3
2021-11-18 05:00 13.25 µg/m3 2.36 µg/m3 55.56 µg/m3 8.26 µg/m3 6.68 µg/m3 16.12 °C 80.88 % 1,012.21 mbar 1.7 m/s 301.97 Deg 0.49 µg/m3
2021-11-18 04:00 10.41 µg/m3 2.58 µg/m3 56.66 µg/m3 6.83 µg/m3 8.04 µg/m3 16.1 °C 80.76 % 1,012.03 mbar 0.91 m/s 338.67 Deg 0.32 µg/m3
2021-11-18 03:00 5.64 µg/m3 2.58 µg/m3 65.24 µg/m3 10.03 µg/m3 8.33 µg/m3 16.52 °C 79.06 % 1,011.96 mbar 1.45 m/s 311.8 Deg 0.19 µg/m3
2021-11-18 02:00 7.03 µg/m3 2.43 µg/m3 65.36 µg/m3 11.57 µg/m3 10.69 µg/m3 16.67 °C 77.57 % 1,011.90 mbar 1.6 m/s 306.68 Deg 0.18 µg/m3
2021-11-18 01:00 12.32 µg/m3 2.52 µg/m3 59.49 µg/m3 16.35 µg/m3 14.18 µg/m3 16.61 °C 77.66 % 1,011.80 mbar 1.6 m/s 302.98 Deg 0.32 µg/m3
2021-11-18 00:00 21.99 µg/m3 2.6 µg/m3 51.64 µg/m3 27.96 µg/m3 21.33 µg/m3 16.8 °C 77.63 % 1,011.76 mbar 1.67 m/s 301.73 Deg 0.66 µg/m3
2021-11-17 23:00 27.03 µg/m3 2.54 µg/m3 45.93 µg/m3 46.49 µg/m3 18.42 µg/m3 17.04 °C 76.78 % 1,011.36 mbar 1.54 m/s 298.82 Deg 1.52 µg/m3
2021-11-17 22:00 35.76 µg/m3 2.5 µg/m3 36.22 µg/m3 52.84 µg/m3 13.67 µg/m3 17.08 °C 77.86 % 1,010.93 mbar 1.35 m/s 305.63 Deg 1.63 µg/m3
2021-11-17 21:00 49.1 µg/m3 2.52 µg/m3 27.81 µg/m3 46.9 µg/m3 13.7 µg/m3 17.31 °C 77.62 % 1,010.44 mbar 1.45 m/s 303.73 Deg 2.98 µg/m3
2021-11-17 20:00 68.36 µg/m3 2.46 µg/m3 14.77 µg/m3 48.56 µg/m3 7.57 µg/m3 17.77 °C 75.45 % 1,009.81 mbar 1.23 m/s 302.07 Deg 7.17 µg/m3
2021-11-17 19:00 63.12 µg/m3 2.39 µg/m3 22.8 µg/m3 43.56 µg/m3 6.25 µg/m3 18.18 °C 74.11 % 1,009.23 mbar 1.1 m/s 299.85 Deg 5.72 µg/m3
2021-11-17 18:00 47.97 µg/m3 2.45 µg/m3 39.74 µg/m3 29.44 µg/m3 6.43 µg/m3 18.85 °C 72.48 % 1,008.23 mbar 1.34 m/s 305.47 Deg 4.04 µg/m3
2021-11-17 17:00 34.91 µg/m3 2.56 µg/m3 51.49 µg/m3 27.44 µg/m3 7.61 µg/m3 19.51 °C 67.19 % 1,007.49 mbar 1.58 m/s 293.6 Deg 3.6 µg/m3
2021-11-17 16:00 16.79 µg/m3 2.25 µg/m3 65 µg/m3 24.01 µg/m3 9 µg/m3 20.36 °C 63.15 % 1,007.13 mbar 2.97 m/s 290.85 Deg 3.3 µg/m3
2021-11-17 15:00 12.28 µg/m3 2.27 µg/m3 68.07 µg/m3 21.69 µg/m3 9.51 µg/m3 20.63 °C 63.23 % 1,006.81 mbar 3.18 m/s 273.23 Deg 2.78 µg/m3
2021-11-17 14:00 7.56 µg/m3 2.24 µg/m3 69.49 µg/m3 32.71 µg/m3 9.89 µg/m3 20.72 °C 64.86 % 1,006.62 mbar 3.53 m/s 256.07 Deg 1.95 µg/m3
2021-11-17 13:00 8.6 µg/m3 2.39 µg/m3 69.5 µg/m3 41.76 µg/m3 14.88 µg/m3 20.92 °C 66.81 % 1,006.68 mbar 3.98 m/s 252.65 Deg 2.56 µg/m3
2021-11-17 12:00 8.37 µg/m3 1.98 µg/m3 68.32 µg/m3 43.86 µg/m3 24.84 µg/m3 20.99 °C 68.69 % 1,006.97 mbar 3.42 m/s 246.78 Deg 2.35 µg/m3
2021-11-17 11:00 10.45 µg/m3 2.29 µg/m3 65.63 µg/m3 43.56 µg/m3 29.8 µg/m3 21.07 °C 66.54 % 1,006.89 mbar 3.48 m/s 260.98 Deg 2.9 µg/m3
2021-11-17 10:00 10.37 µg/m3 2.2 µg/m3 64.92 µg/m3 45.69 µg/m3 24.25 µg/m3 20.99 °C 68.47 % 1,006.25 mbar 3.45 m/s 264.43 Deg 2.42 µg/m3
2021-11-17 09:00 19.95 µg/m3 2.19 µg/m3 53.63 µg/m3 46.28 µg/m3 23.59 µg/m3 20.52 °C 77.66 % 1,005.82 mbar 3.27 m/s 269.73 Deg 4.16 µg/m3
2021-11-17 08:00 21.69 µg/m3 2.36 µg/m3 47.88 µg/m3 26.66 µg/m3 8.85 µg/m3 20.8 °C 79.97 % 1,005.24 mbar 2.16 m/s 237.75 Deg 3.78 µg/m3
2021-11-17 07:00 9.02 µg/m3 2.37 µg/m3 65.72 µg/m3 16.99 µg/m3 2.82 µg/m3 21.81 °C 65.88 % 1,004.55 mbar 6.21 m/s 195.38 Deg 0.24 µg/m3
2021-11-17 06:00 15.64 µg/m3 2.19 µg/m3 62.87 µg/m3 17.58 µg/m3 2.61 µg/m3 21.59 °C 77.64 % 1,004.33 mbar 5.6 m/s 181.73 Deg 0.31 µg/m3
2021-11-17 05:00 0.74 µg/m3 1.94 µg/m3 77.19 µg/m3 27.39 µg/m3 3.47 µg/m3 21.29 °C 81.6 % 1,004.26 mbar 6.06 m/s 175.77 Deg 0.09 µg/m3
2021-11-17 04:00 5.08 µg/m3 2.14 µg/m3 75.63 µg/m3 19.46 µg/m3 5.27 µg/m3 21.18 °C 80.36 % 1,004.66 mbar 6.68 m/s 169.27 Deg 0.24 µg/m3
2021-11-17 03:00 0.55 µg/m3 1.99 µg/m3 83.57 µg/m3 12.62 µg/m3 6.37 µg/m3 21.06 °C 77.86 % 1,005.06 mbar 7.22 m/s 161.75 Deg 0.07 µg/m3
2021-11-17 02:00 3.41 µg/m3 2.1 µg/m3 82.06 µg/m3 15.35 µg/m3 5.93 µg/m3 20.73 °C 79.79 % 1,005.21 mbar 6.7 m/s 154.82 Deg 0.11 µg/m3
2021-11-17 01:00 0.86 µg/m3 2.14 µg/m3 89.85 µg/m3 22.82 µg/m3 5.98 µg/m3 20.6 °C 78.22 % 1,005.63 mbar 5.79 m/s 147.22 Deg 0.07 µg/m3
2021-11-17 00:00 2.24 µg/m3 2.19 µg/m3 88.79 µg/m3 29.22 µg/m3 6.92 µg/m3 20.66 °C 77.86 % 1,006.35 mbar 5.64 m/s 149.03 Deg 0.07 µg/m3
2021-11-16 23:00 2.4 µg/m3 2.08 µg/m3 87.07 µg/m3 32.42 µg/m3 6.13 µg/m3 20.77 °C 80.28 % 1,006.49 mbar 5.33 m/s 157.47 Deg 0.06 µg/m3
2021-11-16 22:00 1.41 µg/m3 2.32 µg/m3 83.95 µg/m3 43.61 µg/m3 2.85 µg/m3 20.74 °C 80.89 % 1,006.44 mbar 5.01 m/s 162.93 Deg 0.07 µg/m3
2021-11-16 21:00 4.21 µg/m3 1.94 µg/m3 74.5 µg/m3 40.23 µg/m3 1.13 µg/m3 20.5 °C 82.98 % 1,006.24 mbar 3.39 m/s 153.47 Deg 0.12 µg/m3
2021-11-16 20:00 4.64 µg/m3 2.06 µg/m3 76.44 µg/m3 36.6 µg/m3 1.55 µg/m3 20.7 °C 80.07 % 1,005.95 mbar 3.19 m/s 160.97 Deg 0.15 µg/m3
2021-11-16 19:00 25.83 µg/m3 2.17 µg/m3 56.79 µg/m3 35.36 µg/m3 3.11 µg/m3 20.89 °C 77.8 % 1,005.95 mbar 3.16 m/s 178.43 Deg 0.41 µg/m3
2021-11-16 18:00 11.91 µg/m3 2.17 µg/m3 70.53 µg/m3 32.78 µg/m3 6.22 µg/m3 21.01 °C 77.98 % 1,006.15 mbar 2.82 m/s 189.48 Deg 0.3 µg/m3
2021-11-16 17:00 6.15 µg/m3 2.11 µg/m3 78.05 µg/m3 24.04 µg/m3 7.04 µg/m3 21.48 °C 74.1 % 1,006.24 mbar 3.09 m/s 190.7 Deg 0.31 µg/m3
2021-11-16 16:00 14.95 µg/m3 2.13 µg/m3 69.92 µg/m3 21.25 µg/m3 5.56 µg/m3 21.72 °C 74.9 % 1,006.44 mbar 3.32 m/s 192.07 Deg 1.23 µg/m3
2021-11-16 15:00 10.57 µg/m3 2.25 µg/m3 74.65 µg/m3 30.41 µg/m3 4.17 µg/m3 21.83 °C 77.44 % 1,006.20 mbar 4.2 m/s 166.92 Deg 1.1 µg/m3
2021-11-16 14:00 6.42 µg/m3 2.3 µg/m3 79.82 µg/m3 26.52 µg/m3 4.01 µg/m3 21.89 °C 77.91 % 1,006.17 mbar 3.89 m/s 163.03 Deg 0.76 µg/m3
2021-11-16 13:00 5.25 µg/m3 2.27 µg/m3 89.46 µg/m3 16.54 µg/m3 4.76 µg/m3 22 °C 77.41 % 1,006.32 mbar 5.32 m/s 159.15 Deg 0.71 µg/m3
2021-11-16 12:00 4.67 µg/m3 2.18 µg/m3 87.85 µg/m3 19.01 µg/m3 5.56 µg/m3 21.83 °C 74.7 % 1,006.78 mbar 5.68 m/s 160.32 Deg 0.8 µg/m3
2021-11-16 11:00 6.76 µg/m3 2.34 µg/m3 83.1 µg/m3 29.84 µg/m3 3.78 µg/m3 21.54 °C 72.56 % 1,007.25 mbar 5.91 m/s 164.47 Deg 1.19 µg/m3
2021-11-16 10:00 13.12 µg/m3 2.16 µg/m3 74.05 µg/m3 21.18 µg/m3 3.06 µg/m3 21.19 °C 71.84 % 1,007.38 mbar 5.47 m/s 169.12 Deg 3.05 µg/m3
2021-11-16 09:00 4.44 µg/m3 2.12 µg/m3 81.08 µg/m3 20.61 µg/m3 1.71 µg/m3 20.61 °C 73.88 % 1,007.19 mbar 5.38 m/s 165.02 Deg 0.55 µg/m3
2021-11-16 08:00 5.6 µg/m3 2.21 µg/m3 79.43 µg/m3 24.96 µg/m3 0.66 µg/m3 19.95 °C 76.35 % 1,006.82 mbar 4.72 m/s 163.53 Deg 0.32 µg/m3
2021-11-16 07:00 9.37 µg/m3 2.23 µg/m3 75.12 µg/m3 18.58 µg/m3 0.78 µg/m3 19.33 °C 76.94 % 1,006.32 mbar 3.48 m/s 160.98 Deg 0.24 µg/m3
2021-11-16 06:00 5.33 µg/m3 2.16 µg/m3 75.04 µg/m3 15.18 µg/m3 1.56 µg/m3 18.94 °C 80.45 % 1,006.10 mbar 3.04 m/s 156.85 Deg 0.11 µg/m3
2021-11-16 05:00 1.74 µg/m3 2.13 µg/m3 74.99 µg/m3 16.33 µg/m3 3.12 µg/m3 18.65 °C 81.5 % 1,006.10 mbar 2.78 m/s 148.97 Deg 0.09 µg/m3
2021-11-16 04:00 1.6 µg/m3 2.24 µg/m3 74.54 µg/m3 22.09 µg/m3 6.23 µg/m3 18.5 °C 79.82 % 1,006.20 mbar 2.48 m/s 149.33 Deg 0.12 µg/m3
2021-11-16 03:00 4.25 µg/m3 2.31 µg/m3 71.9 µg/m3 23.44 µg/m3 6.03 µg/m3 18.47 °C 79.42 % 1,006.45 mbar 1.98 m/s 160.4 Deg 0.18 µg/m3
2021-11-16 02:00 40.11 µg/m3 2.18 µg/m3 39.04 µg/m3 20.47 µg/m3 7.78 µg/m3 18.52 °C 77.51 % 1,006.63 mbar 1.55 m/s 167.85 Deg 0.59 µg/m3
2021-11-16 01:00 71.43 µg/m3 2.26 µg/m3 16.3 µg/m3 N/A N/A 18.83 °C 72.47 % 1,006.87 mbar 1.52 m/s 186.97 Deg 1.48 µg/m3
2021-11-16 00:00 48.13 µg/m3 2.19 µg/m3 30.25 µg/m3 N/A N/A 18.64 °C 75.22 % 1,007.23 mbar 0.65 m/s 151.24 Deg 1.47 µg/m3
2021-11-15 23:00 46.33 µg/m3 2.3 µg/m3 31.77 µg/m3 N/A N/A 18.67 °C 79.51 % 1,007.20 mbar 1.22 m/s 183.62 Deg 1.23 µg/m3
2021-11-15 22:00 41.74 µg/m3 2.28 µg/m3 36.78 µg/m3 N/A N/A 18.66 °C 79.05 % 1,006.97 mbar 0.95 m/s 196.85 Deg 5.02 µg/m3
2021-11-15 21:00 22.32 µg/m3 2.21 µg/m3 51.1 µg/m3 N/A N/A 18.51 °C 85.37 % 1,006.56 mbar 1.07 m/s 158 Deg 2.97 µg/m3
2021-11-15 20:00 8.67 µg/m3 1.97 µg/m3 63.49 µg/m3 N/A N/A 18.23 °C 89.96 % 1,006.40 mbar 0.88 m/s 197 Deg 0.36 µg/m3
2021-11-15 19:00 2.76 µg/m3 1.87 µg/m3 68.58 µg/m3 N/A N/A 18.05 °C 89.35 % 1,006.13 mbar 1.78 m/s 133.67 Deg 0.11 µg/m3
2021-11-15 18:00 6.87 µg/m3 2.15 µg/m3 64.34 µg/m3 N/A N/A 18.15 °C 88.38 % 1,005.94 mbar 1.9 m/s 145.07 Deg 0.19 µg/m3
2021-11-15 17:00 3.14 µg/m3 2.2 µg/m3 74.74 µg/m3 N/A N/A 18.7 °C 85.36 % 1,005.82 mbar 2.54 m/s 131.85 Deg 0.12 µg/m3
2021-11-15 16:00 1.65 µg/m3 2.24 µg/m3 80.22 µg/m3 N/A N/A 19.33 °C 82.46 % 1,005.66 mbar 3.35 m/s 129.23 Deg 0.16 µg/m3
2021-11-15 15:00 1.68 µg/m3 2.26 µg/m3 80.63 µg/m3 N/A N/A 19.7 °C 81.39 % 1,005.67 mbar 3.04 m/s 133.05 Deg 0.28 µg/m3
2021-11-15 14:00 2.29 µg/m3 2.22 µg/m3 80.36 µg/m3 N/A N/A 19.53 °C 80.28 % 1,005.87 mbar 3.1 m/s 131.82 Deg 0.36 µg/m3
2021-11-15 13:00 1.46 µg/m3 1.88 µg/m3 77.85 µg/m3 N/A N/A 19.42 °C 81.87 % 1,006.22 mbar 2.99 m/s 128.28 Deg 0.24 µg/m3
2021-11-15 12:00 2.36 µg/m3 2.31 µg/m3 73.67 µg/m3 N/A N/A 19.23 °C 83.02 % 1,006.68 mbar 2.48 m/s 128.6 Deg 0.34 µg/m3
2021-11-15 11:00 3.7 µg/m3 2.35 µg/m3 70.88 µg/m3 N/A N/A 19.85 °C 80.32 % 1,006.93 mbar 2.86 m/s 132.65 Deg 0.74 µg/m3
2021-11-15 10:00 8.45 µg/m3 2.22 µg/m3 63.1 µg/m3 36.94 µg/m3 40.44 µg/m3 19.61 °C 79.79 % 1,006.99 mbar 1.94 m/s 186.1 Deg 2.08 µg/m3
2021-11-15 09:00 53.94 µg/m3 3.18 µg/m3 17.61 µg/m3 40.51 µg/m3 28.21 µg/m3 18.68 °C 86.46 % 1,006.96 mbar 1 m/s 177.43 Deg 71.6 µg/m3
2021-11-15 08:00 63.45 µg/m3 3.63 µg/m3 2.02 µg/m3 22.04 µg/m3 12.07 µg/m3 17.27 °C 93 % 1,006.47 mbar 1.2 m/s 236.33 Deg 109.15 µg/m3
2021-11-15 07:00 71.36 µg/m3 3.44 µg/m3 3.63 µg/m3 13.19 µg/m3 13.3 µg/m3 17.73 °C 89.81 % 1,006.18 mbar 0.79 m/s 167.33 Deg 88.88 µg/m3
2021-11-15 06:00 53.39 µg/m3 2.52 µg/m3 13.58 µg/m3 13.03 µg/m3 10.11 µg/m3 17.84 °C 89.47 % 1,006.17 mbar 0.61 m/s 207.77 Deg 23.51 µg/m3
2021-11-15 05:00 23.07 µg/m3 2.14 µg/m3 30.8 µg/m3 16.6 µg/m3 8.99 µg/m3 17.56 °C 93.33 % 1,006.00 mbar 0.77 m/s 191.18 Deg 2.21 µg/m3
2021-11-15 04:00 14.21 µg/m3 2.36 µg/m3 41.72 µg/m3 18.08 µg/m3 9.54 µg/m3 17.51 °C 94.7 % 1,006.25 mbar 1.1 m/s 207.36 Deg 0.56 µg/m3
2021-11-15 03:00 27.89 µg/m3 2.2 µg/m3 31.28 µg/m3 23.41 µg/m3 12.72 µg/m3 17.58 °C 93.69 % 1,006.96 mbar 1.36 m/s 190.57 Deg 0.51 µg/m3
2021-11-15 02:00 19.12 µg/m3 2.5 µg/m3 41.41 µg/m3 16.66 µg/m3 19.15 µg/m3 17.87 °C 92.14 % 1,006.96 mbar 1.09 m/s 156.68 Deg 0.63 µg/m3
2021-11-15 01:00 25.65 µg/m3 2.29 µg/m3 36.48 µg/m3 19.52 µg/m3 15.83 µg/m3 17.89 °C 91.81 % 1,007.36 mbar 0.81 m/s 139.21 Deg 1.37 µg/m3
2021-11-15 00:00 18.16 µg/m3 2.36 µg/m3 50.51 µg/m3 30.8 µg/m3 14.64 µg/m3 17.83 °C 89.52 % 1,007.44 mbar 0.91 m/s 30.88 Deg 1.1 µg/m3
2021-11-14 23:00 27.92 µg/m3 2.25 µg/m3 38.01 µg/m3 23.81 µg/m3 19.81 µg/m3 18.01 °C 88.1 % 1,007.60 mbar 0.77 m/s 25.85 Deg 2.57 µg/m3
2021-11-14 22:00 27.92 µg/m3 2.26 µg/m3 44.65 µg/m3 30.08 µg/m3 12.04 µg/m3 18.37 °C 86.36 % 1,007.52 mbar 0.82 m/s 286.71 Deg 2.85 µg/m3
2021-11-14 21:00 28.41 µg/m3 2.26 µg/m3 49.06 µg/m3 38.43 µg/m3 8.49 µg/m3 18.29 °C 85.81 % 1,007.37 mbar 1.37 m/s 263.78 Deg 1.7 µg/m3
2021-11-14 20:00 44.36 µg/m3 2.3 µg/m3 33.12 µg/m3 20.06 µg/m3 5.32 µg/m3 18.56 °C 84.38 % 1,007.32 mbar 0.88 m/s 203.6 Deg 7.47 µg/m3
2021-11-14 19:00 30.46 µg/m3 2.4 µg/m3 42.64 µg/m3 19.11 µg/m3 6.15 µg/m3 18.64 °C 82.63 % 1,007.15 mbar 0.86 m/s 183.7 Deg 1.36 µg/m3
2021-11-14 18:00 10.05 µg/m3 2.33 µg/m3 61.25 µg/m3 20.12 µg/m3 5.1 µg/m3 18.75 °C 81.86 % 1,006.64 mbar 1.32 m/s 163.22 Deg 0.24 µg/m3
2021-11-14 17:00 10.66 µg/m3 2.14 µg/m3 65 µg/m3 12.77 µg/m3 3.97 µg/m3 18.76 °C 80.28 % 1,006.22 mbar 2.27 m/s 172.6 Deg 0.32 µg/m3
2021-11-14 16:00 4.41 µg/m3 2.12 µg/m3 72 µg/m3 10.46 µg/m3 4.6 µg/m3 19.08 °C 80.05 % 1,005.89 mbar 3.6 m/s 154.1 Deg 0.18 µg/m3
2021-11-14 15:00 6.53 µg/m3 2.23 µg/m3 66.17 µg/m3 10.36 µg/m3 4.33 µg/m3 19.2 °C 84.51 % 1,006.45 mbar 3.77 m/s 154.38 Deg 0.39 µg/m3
2021-11-14 14:00 2.19 µg/m3 2.44 µg/m3 70.47 µg/m3 9.92 µg/m3 5.9 µg/m3 19.39 °C 86.51 % 1,006.70 mbar 4.76 m/s 148.6 Deg 0.3 µg/m3
2021-11-14 13:00 1.74 µg/m3 2.48 µg/m3 84.15 µg/m3 11.45 µg/m3 6.47 µg/m3 19.88 °C 77.18 % 1,007.11 mbar 4.44 m/s 134.07 Deg 0.23 µg/m3
2021-11-14 12:00 1.47 µg/m3 2.32 µg/m3 86.76 µg/m3 16.29 µg/m3 8.21 µg/m3 20.11 °C 69.37 % 1,007.86 mbar 5.2 m/s 128.57 Deg 0.24 µg/m3
2021-11-14 11:00 2.58 µg/m3 2.22 µg/m3 84.14 µg/m3 28.08 µg/m3 9.35 µg/m3 19.85 °C 73.37 % 1,008.60 mbar 4.81 m/s 120.57 Deg 0.33 µg/m3
2021-11-14 10:00 2.8 µg/m3 2.75 µg/m3 82.18 µg/m3 28.41 µg/m3 15.86 µg/m3 19.89 °C 72.74 % 1,008.49 mbar 4.29 m/s 120.13 Deg 0.38 µg/m3
2021-11-14 09:00 8.95 µg/m3 2.49 µg/m3 72.61 µg/m3 38.77 µg/m3 19.78 µg/m3 19.52 °C 71.35 % 1,008.58 mbar 2.58 m/s 146.72 Deg 1.12 µg/m3
2021-11-14 08:00 44.9 µg/m3 2.73 µg/m3 34.95 µg/m3 35.1 µg/m3 11.99 µg/m3 18.13 °C 76.9 % 1,008.59 mbar 1.28 m/s 29.07 Deg 8.24 µg/m3
2021-11-14 07:00 52.07 µg/m3 2.7 µg/m3 16.62 µg/m3 32.72 µg/m3 8.8 µg/m3 17.25 °C 81.52 % 1,008.53 mbar 1.24 m/s 18.33 Deg 13.25 µg/m3
2021-11-14 06:00 41.06 µg/m3 2.73 µg/m3 28.54 µg/m3 22.33 µg/m3 9.08 µg/m3 17.55 °C 79.27 % 1,008.61 mbar 1.36 m/s 94.42 Deg 5.11 µg/m3
2021-11-14 05:00 27.84 µg/m3 2.75 µg/m3 35.02 µg/m3 13.44 µg/m3 13.2 µg/m3 17.93 °C 74.09 % 1,008.72 mbar 1.11 m/s 15.68 Deg 2.91 µg/m3
2021-11-14 04:00 17.81 µg/m3 2.55 µg/m3 57.46 µg/m3 13.93 µg/m3 20.42 µg/m3 18.34 °C 70.53 % 1,009.03 mbar 0.66 m/s 92.52 Deg 0.87 µg/m3
2021-11-14 03:00 7.73 µg/m3 2.49 µg/m3 72.52 µg/m3 18.39 µg/m3 20.1 µg/m3 18.73 °C 62.41 % 1,009.50 mbar 0.44 m/s 158 Deg 0.24 µg/m3
2021-11-14 02:00 24.16 µg/m3 2.45 µg/m3 52.37 µg/m3 28.09 µg/m3 20.68 µg/m3 18.44 °C 59.4 % 1,009.71 mbar 0.52 m/s 197.66 Deg 1.67 µg/m3
2021-11-14 01:00 21.45 µg/m3 2.48 µg/m3 60.08 µg/m3 29.81 µg/m3 25.83 µg/m3 18.67 °C 62.82 % 1,009.84 mbar 0.6 m/s 185 Deg 1.25 µg/m3
2021-11-14 00:00 31.16 µg/m3 2.42 µg/m3 48.14 µg/m3 42.28 µg/m3 26.9 µg/m3 18.33 °C 65.52 % 1,010.27 mbar 1.05 m/s 310.58 Deg 2.54 µg/m3
2021-11-13 23:00 28.39 µg/m3 2.69 µg/m3 49.87 µg/m3 68.21 µg/m3 45.45 µg/m3 18.62 °C 63.97 % 1,010.40 mbar 1.01 m/s 301.45 Deg 1.54 µg/m3
2021-11-13 22:00 70.21 µg/m3 2.9 µg/m3 7.54 µg/m3 95.09 µg/m3 53.6 µg/m3 18.01 °C 72.26 % 1,010.35 mbar 1.33 m/s 306.28 Deg 18.15 µg/m3
2021-11-13 21:00 76.63 µg/m3 3.12 µg/m3 7.08 µg/m3 91.48 µg/m3 56.18 µg/m3 18.06 °C 74.25 % 1,010.48 mbar 1.2 m/s 320.35 Deg 24.59 µg/m3
2021-11-13 20:00 80.94 µg/m3 2.89 µg/m3 10.75 µg/m3 76.24 µg/m3 41.67 µg/m3 18.89 °C 67.84 % 1,010.57 mbar 1.18 m/s 298.63 Deg 22.66 µg/m3
2021-11-13 19:00 87.53 µg/m3 2.98 µg/m3 4.88 µg/m3 59.69 µg/m3 33.76 µg/m3 18.97 °C 69.01 % 1,010.48 mbar 1.02 m/s 296.5 Deg 35.6 µg/m3
2021-11-13 18:00 77.79 µg/m3 2.65 µg/m3 13.13 µg/m3 31.54 µg/m3 15.82 µg/m3 19.29 °C 69.02 % 1,010.33 mbar 0.77 m/s 283.82 Deg 20.71 µg/m3
2021-11-13 17:00 47.28 µg/m3 2.56 µg/m3 40.62 µg/m3 17.52 µg/m3 9.87 µg/m3 19.79 °C 66.77 % 1,010.09 mbar 0.49 m/s 300.25 Deg 3.73 µg/m3
2021-11-13 16:00 17.06 µg/m3 2.27 µg/m3 68.35 µg/m3 20.35 µg/m3 15.31 µg/m3 20.06 °C 67.02 % 1,010.15 mbar 0.57 m/s 249.51 Deg 0.89 µg/m3
2021-11-13 15:00 6.94 µg/m3 2.47 µg/m3 77.92 µg/m3 16.67 µg/m3 N/A 20.05 °C 67.68 % 1,010.23 mbar 1.4 m/s 230.97 Deg 0.54 µg/m3
2021-11-13 14:00 4.46 µg/m3 2.56 µg/m3 82.27 µg/m3 17.1 µg/m3 N/A 20.27 °C 66.26 % 1,010.47 mbar 2.24 m/s 215.13 Deg 0.51 µg/m3
2021-11-13 13:00 9.58 µg/m3 2.46 µg/m3 84.06 µg/m3 23.01 µg/m3 N/A 20.35 °C 68 % 1,010.76 mbar 1.91 m/s 172.22 Deg 1.12 µg/m3
2021-11-13 12:00 21.99 µg/m3 2.57 µg/m3 71.74 µg/m3 37.75 µg/m3 N/A 20.31 °C 66.33 % 1,011.23 mbar 1.47 m/s 198.63 Deg 3.27 µg/m3
2021-11-13 11:00 23.38 µg/m3 2.53 µg/m3 70.31 µg/m3 34.15 µg/m3 N/A 20.63 °C 62.77 % 1,011.89 mbar 0.92 m/s 192.12 Deg 3.63 µg/m3
2021-11-13 10:00 40.49 µg/m3 2.94 µg/m3 54.93 µg/m3 40.48 µg/m3 N/A 20.79 °C 60.12 % 1,011.89 mbar 0.66 m/s 185.46 Deg 10.34 µg/m3
2021-11-13 09:00 69.31 µg/m3 3.02 µg/m3 30.05 µg/m3 40.52 µg/m3 10.92 µg/m3 19.41 °C 65.1 % 1,011.73 mbar 0.7 m/s 233.23 Deg 27.56 µg/m3
2021-11-13 08:00 66.6 µg/m3 2.88 µg/m3 24.6 µg/m3 17.64 µg/m3 9.58 µg/m3 17.53 °C 66.65 % 1,011.38 mbar 1.09 m/s 334.98 Deg 25.25 µg/m3
2021-11-13 07:00 35.01 µg/m3 2.29 µg/m3 48.03 µg/m3 12.84 µg/m3 10.8 µg/m3 16.9 °C 64.02 % 1,011.29 mbar 1.52 m/s 315.35 Deg 2.07 µg/m3
2021-11-13 06:00 21.43 µg/m3 -0.46 µg/m3 56.56 µg/m3 15.39 µg/m3 8.83 µg/m3 16.57 °C 59.05 % 1,011.07 mbar 2.06 m/s 302.37 Deg 1.16 µg/m3
2021-11-13 05:00 14.16 µg/m3 2.52 µg/m3 59.14 µg/m3 15.22 µg/m3 11.48 µg/m3 16 °C 67.15 % 1,010.96 mbar 2.15 m/s 304.18 Deg 0.4 µg/m3
2021-11-13 04:00 13.91 µg/m3 2.71 µg/m3 57.12 µg/m3 12.31 µg/m3 16.63 µg/m3 15.93 °C 71.29 % 1,010.93 mbar 2.15 m/s 305.63 Deg 0.41 µg/m3
2021-11-13 03:00 16.56 µg/m3 2.4 µg/m3 55.83 µg/m3 13.79 µg/m3 11.09 µg/m3 16.56 °C 65.31 % 1,011.04 mbar 1.58 m/s 313.9 Deg 0.35 µg/m3
2021-11-13 02:00 31.19 µg/m3 2.37 µg/m3 41 µg/m3 21.97 µg/m3 12.38 µg/m3 16.29 °C 67.33 % 1,011.19 mbar 1.74 m/s 309.57 Deg 0.71 µg/m3
2021-11-13 01:00 45.68 µg/m3 2.67 µg/m3 33.82 µg/m3 34.61 µg/m3 19.16 µg/m3 16.72 °C 67.24 % 1,011.21 mbar 1.74 m/s 308.45 Deg 1.79 µg/m3
2021-11-13 00:00 52.8 µg/m3 2.84 µg/m3 28.93 µg/m3 47.26 µg/m3 35.98 µg/m3 17.23 °C 65.69 % 1,011.34 mbar 1.84 m/s 303.45 Deg 2.78 µg/m3
2021-11-12 23:00 66.27 µg/m3 2.83 µg/m3 15.5 µg/m3 69.46 µg/m3 47.01 µg/m3 17.36 °C 65.53 % 1,011.41 mbar 1.78 m/s 304.68 Deg 4.78 µg/m3
2021-11-12 22:00 82.59 µg/m3 1.56 µg/m3 5.24 µg/m3 103.8 µg/m3 53.49 µg/m3 17.42 °C 66.51 % 1,011.50 mbar 1.76 m/s 304.77 Deg 19.87 µg/m3
2021-11-12 21:00 88.98 µg/m3 3.29 µg/m3 4.69 µg/m3 111.15 µg/m3 68.37 µg/m3 17.71 °C 66.47 % 1,011.32 mbar 1.43 m/s 308.18 Deg 40.56 µg/m3
2021-11-12 20:00 98.46 µg/m3 3.92 µg/m3 4.24 µg/m3 76.93 µg/m3 46.62 µg/m3 18.13 °C 64.63 % 1,011.21 mbar 1.23 m/s 304 Deg 72.3 µg/m3
2021-11-12 19:00 93.42 µg/m3 3.36 µg/m3 8.42 µg/m3 48.5 µg/m3 19.69 µg/m3 18.58 °C 62.34 % 1,011.17 mbar 0.86 m/s 326.72 Deg 47.37 µg/m3
2021-11-12 18:00 65.75 µg/m3 2.91 µg/m3 27.93 µg/m3 27.44 µg/m3 17.4 µg/m3 18.87 °C 59.64 % 1,010.73 mbar 1.07 m/s 99.42 Deg 11.34 µg/m3
2021-11-12 17:00 31.17 µg/m3 2.5 µg/m3 60.22 µg/m3 35 µg/m3 16.48 µg/m3 19.53 °C 57.49 % 1,010.26 mbar 1.51 m/s 9.65 Deg 5.06 µg/m3
2021-11-12 16:00 18.79 µg/m3 2.45 µg/m3 81.74 µg/m3 21.44 µg/m3 7.34 µg/m3 20.25 °C 57.85 % 1,009.86 mbar 2.03 m/s 22.98 Deg 4.11 µg/m3
2021-11-12 15:00 16.83 µg/m3 2.49 µg/m3 84.22 µg/m3 22.47 µg/m3 5.02 µg/m3 20.85 °C 53.15 % 1,009.79 mbar 1.88 m/s 30.87 Deg 2.71 µg/m3
2021-11-12 14:00 14.4 µg/m3 2.62 µg/m3 83 µg/m3 18 µg/m3 5.86 µg/m3 20.86 °C 55.44 % 1,009.80 mbar 1.83 m/s 191.15 Deg 2.6 µg/m3
2021-11-12 13:00 13.87 µg/m3 2.46 µg/m3 81.43 µg/m3 20.3 µg/m3 8.57 µg/m3 21.15 °C 54.08 % 1,010.04 mbar 1.74 m/s 283.98 Deg 2.67 µg/m3
2021-11-12 12:00 12.1 µg/m3 2.73 µg/m3 80.35 µg/m3 30.16 µg/m3 5.57 µg/m3 20.83 °C 52.88 % 1,010.58 mbar 1.78 m/s 240.8 Deg 2.31 µg/m3
2021-11-12 11:00 11.58 µg/m3 2.55 µg/m3 77.78 µg/m3 38.13 µg/m3 4.79 µg/m3 20.7 °C 49.51 % 1,011.10 mbar 1.2 m/s 269.38 Deg 2.13 µg/m3
2021-11-12 10:00 19.1 µg/m3 2.67 µg/m3 68.22 µg/m3 65.57 µg/m3 7.31 µg/m3 20.84 °C 47.17 % 1,011.24 mbar 0.63 m/s 247.93 Deg 3.33 µg/m3
2021-11-12 09:00 61.81 µg/m3 3.52 µg/m3 31.72 µg/m3 63.2 µg/m3 12.13 µg/m3 20.09 °C 50.63 % 1,011.27 mbar 0.49 m/s 245.25 Deg 50.44 µg/m3
2021-11-12 08:00 87.95 µg/m3 3.35 µg/m3 16.96 µg/m3 30.53 µg/m3 17.39 µg/m3 18.95 °C 47.55 % 1,011.19 mbar 0.8 m/s 151.03 Deg 67.93 µg/m3
2021-11-12 07:00 69.54 µg/m3 3.05 µg/m3 20.62 µg/m3 9.66 µg/m3 8.32 µg/m3 17.19 °C 53.37 % 1,010.95 mbar 1.74 m/s 302.03 Deg 31.31 µg/m3
2021-11-12 06:00 25.91 µg/m3 2.63 µg/m3 55.42 µg/m3 8.32 µg/m3 4.42 µg/m3 17.43 °C 54.23 % 1,010.79 mbar 1.68 m/s 304.85 Deg 2.82 µg/m3
2021-11-12 05:00 8.14 µg/m3 2.51 µg/m3 70.26 µg/m3 9.61 µg/m3 4.75 µg/m3 17.19 °C 61.19 % 1,010.74 mbar 1.87 m/s 290.48 Deg 0.23 µg/m3
2021-11-12 04:00 5.34 µg/m3 2.4 µg/m3 67.03 µg/m3 13.26 µg/m3 5.04 µg/m3 16.84 °C 63.68 % 1,010.90 mbar 1.92 m/s 298.53 Deg 0.13 µg/m3
2021-11-12 03:00 5.2 µg/m3 2.43 µg/m3 67.71 µg/m3 11.52 µg/m3 8 µg/m3 16.91 °C 64.28 % 1,011.23 mbar 1.59 m/s 311.25 Deg 0.1 µg/m3
2021-11-12 02:00 11.2 µg/m3 2.56 µg/m3 56.9 µg/m3 15.04 µg/m3 13.77 µg/m3 16.29 °C 68.99 % 1,011.26 mbar 1.94 m/s 304.07 Deg 0.22 µg/m3
2021-11-12 01:00 16.76 µg/m3 2.55 µg/m3 53.32 µg/m3 22.42 µg/m3 13.21 µg/m3 16.7 °C 67.46 % 1,011.43 mbar 1.83 m/s 303.93 Deg 0.42 µg/m3
2021-11-12 00:00 26.34 µg/m3 2.58 µg/m3 45.7 µg/m3 38.01 µg/m3 18.61 µg/m3 16.73 °C 70.07 % 1,011.58 mbar 1.87 m/s 303.4 Deg 1.1 µg/m3
2021-11-11 23:00 32.21 µg/m3 2.61 µg/m3 38.46 µg/m3 47.18 µg/m3 11.33 µg/m3 16.97 °C 71.93 % 1,011.97 mbar 1.72 m/s 307 Deg 1.83 µg/m3
2021-11-11 22:00 45.94 µg/m3 2.47 µg/m3 25.01 µg/m3 54.76 µg/m3 8.36 µg/m3 17.09 °C 71.64 % 1,012.16 mbar 1.6 m/s 306.23 Deg 2.94 µg/m3
2021-11-11 21:00 59.87 µg/m3 2.65 µg/m3 17.52 µg/m3 53.39 µg/m3 10.14 µg/m3 17.3 °C 70.47 % 1,011.90 mbar 1.36 m/s 307.85 Deg 6.26 µg/m3
2021-11-11 20:00 76.66 µg/m3 2.96 µg/m3 5.08 µg/m3 54.75 µg/m3 6.92 µg/m3 17.41 °C 70.96 % 1,011.71 mbar 1.29 m/s 305.47 Deg 23.31 µg/m3
2021-11-11 19:00 86.84 µg/m3 3.04 µg/m3 1.36 µg/m3 41.66 µg/m3 6.03 µg/m3 18.2 °C 67.06 % 1,011.71 mbar 0.99 m/s 317.02 Deg 37.63 µg/m3
2021-11-11 18:00 71.94 µg/m3 2.4 µg/m3 12.37 µg/m3 15.71 µg/m3 5.41 µg/m3 18.53 °C 65.62 % 1,011.22 mbar 0.95 m/s 303.13 Deg 10.84 µg/m3
2021-11-11 17:00 43.06 µg/m3 2.31 µg/m3 42.97 µg/m3 8.94 µg/m3 3.98 µg/m3 19.78 °C 58.98 % 1,010.74 mbar 1.69 m/s 304.52 Deg 5.09 µg/m3
2021-11-11 16:00 24.87 µg/m3 2.24 µg/m3 62.68 µg/m3 9.54 µg/m3 3.82 µg/m3 20.83 °C 53.26 % 1,010.79 mbar 1.94 m/s 316.53 Deg 3.64 µg/m3
2021-11-11 15:00 26.32 µg/m3 2.22 µg/m3 58.79 µg/m3 10.06 µg/m3 4.84 µg/m3 20.44 °C 55.8 % 1,010.78 mbar 1.91 m/s 314.82 Deg 4.41 µg/m3
2021-11-11 14:00 21.77 µg/m3 2.23 µg/m3 62.34 µg/m3 14.21 µg/m3 5.34 µg/m3 20.24 °C 66.77 % 1,010.96 mbar 1.91 m/s 328.62 Deg 4.39 µg/m3
2021-11-11 13:00 21.53 µg/m3 2.12 µg/m3 64 µg/m3 11.26 µg/m3 5.3 µg/m3 19.54 °C 81.66 % 1,011.38 mbar 1.8 m/s 14.25 Deg 5.22 µg/m3
2021-11-11 12:00 23.07 µg/m3 1.89 µg/m3 60.04 µg/m3 13.64 µg/m3 5.75 µg/m3 19.14 °C 84.3 % 1,011.44 mbar 1.61 m/s 180.44 Deg 4.28 µg/m3
2021-11-11 11:00 29.84 µg/m3 2.08 µg/m3 53.99 µg/m3 14.77 µg/m3 9.05 µg/m3 18.4 °C 88.69 % 1,011.65 mbar 1.97 m/s 266.87 Deg 5.36 µg/m3
2021-11-11 10:00 21.71 µg/m3 2.02 µg/m3 59.4 µg/m3 19.57 µg/m3 12.62 µg/m3 18.13 °C 93.96 % 1,011.42 mbar 2.4 m/s 238.2 Deg 2.43 µg/m3
2021-11-11 09:00 18.9 µg/m3 1.97 µg/m3 64.57 µg/m3 35.02 µg/m3 20.47 µg/m3 18.55 °C 98.24 % 1,010.86 mbar 7.47 m/s 163.6 Deg 1.08 µg/m3
2021-11-11 08:00 3.16 µg/m3 2.05 µg/m3 70.63 µg/m3 36.93 µg/m3 25.44 µg/m3 19.79 °C 99.13 % 1,010.35 mbar 8.6 m/s 130.85 Deg 0.1 µg/m3
2021-11-11 07:00 2.11 µg/m3 2.01 µg/m3 72.42 µg/m3 37.23 µg/m3 27.29 µg/m3 20.28 °C 95.69 % 1,010.23 mbar 9.5 m/s 136.37 Deg 0.14 µg/m3
2021-11-11 06:00 0.66 µg/m3 1.93 µg/m3 74.23 µg/m3 31.08 µg/m3 20.46 µg/m3 20.72 °C 91.82 % 1,009.73 mbar 9.24 m/s 128.87 Deg 0.05 µg/m3
2021-11-11 05:00 2.99 µg/m3 1.93 µg/m3 71.27 µg/m3 35.36 µg/m3 19.21 µg/m3 20.69 °C 90.68 % 1,009.75 mbar 8.4 m/s 125.05 Deg 0.03 µg/m3
2021-11-11 04:00 0.34 µg/m3 1.77 µg/m3 72.56 µg/m3 33.51 µg/m3 31.16 µg/m3 20.52 °C 92.45 % 1,010.54 mbar 8.24 m/s 124.75 Deg 0.01 µg/m3
2021-11-11 03:00 0.28 µg/m3 1.73 µg/m3 72.31 µg/m3 42.33 µg/m3 46.88 µg/m3 20.59 °C 92.96 % 1,010.99 mbar 8.88 m/s 125.38 Deg -0.01 µg/m3
2021-11-11 02:00 0.34 µg/m3 2.01 µg/m3 71.26 µg/m3 44.44 µg/m3 37.68 µg/m3 20.38 °C 96.3 % 1,011.61 mbar 8.33 m/s 122.75 Deg 0.03 µg/m3
2021-11-11 01:00 1.73 µg/m3 0.63 µg/m3 71.12 µg/m3 35.86 µg/m3 43.14 µg/m3 20.68 °C 93.58 % 1,011.70 mbar 7.58 m/s 117.73 Deg 0.06 µg/m3
2021-11-11 00:00 1.86 µg/m3 1.96 µg/m3 73.25 µg/m3 38.31 µg/m3 22.27 µg/m3 21 °C 90.33 % 1,011.72 mbar 7.48 m/s 122.45 Deg 0.08 µg/m3
2021-11-10 23:00 0.97 µg/m3 1.65 µg/m3 76.16 µg/m3 44.04 µg/m3 18.16 µg/m3 21.13 °C 89.54 % 1,011.76 mbar 8.25 m/s 123.63 Deg 0.06 µg/m3
2021-11-10 22:00 1.27 µg/m3 1.91 µg/m3 78.18 µg/m3 35.07 µg/m3 24.06 µg/m3 21.2 °C 91.54 % 1,011.91 mbar 8.03 m/s 127.67 Deg 0.05 µg/m3
2021-11-10 21:00 2.89 µg/m3 1.97 µg/m3 78.45 µg/m3 31.94 µg/m3 19.43 µg/m3 21.26 °C 91.69 % 1,011.84 mbar 8.68 m/s 126.02 Deg 0.09 µg/m3
2021-11-10 20:00 1.84 µg/m3 1.84 µg/m3 79.77 µg/m3 34.83 µg/m3 27.53 µg/m3 21.26 °C 92.85 % 1,011.24 mbar 8.91 m/s 127.17 Deg 0.11 µg/m3
2021-11-10 19:00 0.49 µg/m3 1.88 µg/m3 82.99 µg/m3 26.72 µg/m3 22.51 µg/m3 21.43 °C 92.53 % 1,011.46 mbar 8.21 m/s 132.72 Deg 0.07 µg/m3
2021-11-10 18:00 1.22 µg/m3 1.81 µg/m3 79.46 µg/m3 26.33 µg/m3 21.88 µg/m3 21.59 °C 92.36 % 1,011.32 mbar 8.32 m/s 128.73 Deg 0.11 µg/m3
2021-11-10 17:00 1.14 µg/m3 1.82 µg/m3 74.74 µg/m3 28.04 µg/m3 20.39 µg/m3 21.66 °C 94.6 % 1,011.35 mbar 7.75 m/s 129.08 Deg 0.2 µg/m3
2021-11-10 16:00 1.39 µg/m3 1.93 µg/m3 70.26 µg/m3 29.1 µg/m3 17.71 µg/m3 21.62 °C 97.15 % 1,010.89 mbar 7.59 m/s 126.88 Deg 0.12 µg/m3
2021-11-10 15:00 0.59 µg/m3 1.76 µg/m3 64.51 µg/m3 31.7 µg/m3 14.8 µg/m3 21.4 °C 98.91 % 1,010.50 mbar 7.41 m/s 117.9 Deg 0.11 µg/m3
2021-11-10 14:00 1 µg/m3 1.85 µg/m3 65.69 µg/m3 42.92 µg/m3 19.13 µg/m3 21.41 °C 97.66 % 1,010.64 mbar 7.3 m/s 117.6 Deg 0.17 µg/m3
2021-11-10 13:00 1.27 µg/m3 2.05 µg/m3 67.07 µg/m3 33.62 µg/m3 23.6 µg/m3 21.8 °C 96.29 % 1,011.72 mbar 6.78 m/s 120.97 Deg 0.23 µg/m3
2021-11-10 12:00 0.81 µg/m3 1.86 µg/m3 69.93 µg/m3 30.3 µg/m3 10.59 µg/m3 21.72 °C 95.79 % 1,012.32 mbar 5.78 m/s 122.34 Deg 0.16 µg/m3
2021-11-10 11:00 1.42 µg/m3 1.98 µg/m3 68.34 µg/m3 29.82 µg/m3 8.52 µg/m3 21.76 °C 91.14 % 1,012.74 mbar 5.8 m/s 127.67 Deg 0.24 µg/m3
2021-11-10 10:00 0.72 µg/m3 1.92 µg/m3 69.72 µg/m3 46.75 µg/m3 7.43 µg/m3 21.72 °C 84.63 % 1,012.56 mbar 6.83 m/s 129.58 Deg 0.13 µg/m3
2021-11-10 09:00 3.6 µg/m3 2.17 µg/m3 68.11 µg/m3 43.56 µg/m3 7.44 µg/m3 20.66 °C 92.14 % 1,012.64 mbar 4.3 m/s 138.1 Deg 0.44 µg/m3
2021-11-10 08:00 12.9 µg/m3 2.25 µg/m3 61.9 µg/m3 29.02 µg/m3 7.05 µg/m3 19.37 °C 92.36 % 1,012.48 mbar 2.01 m/s 85.48 Deg 0.96 µg/m3
2021-11-10 07:00 24.53 µg/m3 2.01 µg/m3 55.72 µg/m3 13.89 µg/m3 6.47 µg/m3 18.94 °C 88.69 % 1,011.96 mbar 2.76 m/s 48.07 Deg 3.18 µg/m3
2021-11-10 06:00 10.28 µg/m3 2.05 µg/m3 69.32 µg/m3 7.23 µg/m3 5.72 µg/m3 18.72 °C 87.19 % 1,011.91 mbar 2.26 m/s 99.38 Deg 1.3 µg/m3
2021-11-10 05:00 13.02 µg/m3 2.09 µg/m3 64.32 µg/m3 7.52 µg/m3 5.6 µg/m3 18.25 °C 87.7 % 1,011.97 mbar 2.25 m/s 266.22 Deg 0.54 µg/m3
2021-11-10 04:00 13.99 µg/m3 2.07 µg/m3 62.34 µg/m3 6.91 µg/m3 7.93 µg/m3 18.03 °C 88.11 % 1,011.91 mbar 1.8 m/s 341.13 Deg 0.18 µg/m3
2021-11-10 03:00 4.34 µg/m3 1.9 µg/m3 69.3 µg/m3 8.16 µg/m3 7.72 µg/m3 17.65 °C 93.04 % 1,011.92 mbar 1.99 m/s 326.62 Deg 0.07 µg/m3
2021-11-10 02:00 1.89 µg/m3 1.94 µg/m3 71.72 µg/m3 11.3 µg/m3 11.26 µg/m3 17.73 °C 94.76 % 1,012.00 mbar 2.93 m/s 304.72 Deg 0.05 µg/m3
2021-11-10 01:00 1.12 µg/m3 1.88 µg/m3 70.39 µg/m3 16.47 µg/m3 18.56 µg/m3 19.47 °C 90.54 % 1,012.00 mbar 4.74 m/s 234.17 Deg 0.05 µg/m3
2021-11-10 00:00 0.29 µg/m3 2.09 µg/m3 66.4 µg/m3 23.05 µg/m3 30.57 µg/m3 21.13 °C 93.54 % 1,010.57 mbar 7.23 m/s 132.45 Deg 0.03 µg/m3
2021-11-09 23:00 0.49 µg/m3 1.9 µg/m3 66.41 µg/m3 31.25 µg/m3 11.64 µg/m3 20.97 °C 96.45 % 1,009.62 mbar 7.74 m/s 120.48 Deg 0.03 µg/m3
2021-11-09 22:00 0.18 µg/m3 2.02 µg/m3 65.33 µg/m3 39.95 µg/m3 3.99 µg/m3 20.84 °C 99.23 % 1,008.97 mbar 7.66 m/s 120.1 Deg 0.03 µg/m3
2021-11-09 21:00 1.71 µg/m3 1.97 µg/m3 63.85 µg/m3 16.7 µg/m3 6.84 µg/m3 20.87 °C 99.68 % 1,008.66 mbar 7.39 m/s 126.4 Deg 0.04 µg/m3
2021-11-09 20:00 8.43 µg/m3 1.98 µg/m3 54.95 µg/m3 10.16 µg/m3 8.53 µg/m3 19.98 °C 92.53 % 1,009.41 mbar 3.26 m/s 102.63 Deg 0.45 µg/m3
2021-11-09 19:00 13.46 µg/m3 1.92 µg/m3 51.11 µg/m3 9.78 µg/m3 9.49 µg/m3 19.35 °C 93.2 % 1,010.22 mbar 3.58 m/s 32.87 Deg 2.29 µg/m3
2021-11-09 18:00 50.87 µg/m3 2.05 µg/m3 17.7 µg/m3 10.43 µg/m3 6.32 µg/m3 18.74 °C 91.92 % 1,011.05 mbar 2.49 m/s 348.42 Deg 8.26 µg/m3
2021-11-09 17:00 56.98 µg/m3 2.24 µg/m3 13.51 µg/m3 11.78 µg/m3 7.06 µg/m3 18.17 °C 92.74 % 1,010.79 mbar 2.08 m/s 341.32 Deg 15.57 µg/m3
2021-11-09 16:00 23.01 µg/m3 2.01 µg/m3 44.13 µg/m3 14.31 µg/m3 9.76 µg/m3 17.82 °C 96.26 % 1,010.18 mbar 2.82 m/s 318.33 Deg 3.4 µg/m3
2021-11-09 15:00 6.91 µg/m3 1.81 µg/m3 52.74 µg/m3 22.41 µg/m3 12.62 µg/m3 21.69 °C 96.15 % 1,009.23 mbar 2.8 m/s 181.08 Deg 1.38 µg/m3
2021-11-09 14:00 6.95 µg/m3 1.71 µg/m3 55.8 µg/m3 27.47 µg/m3 12.8 µg/m3 22.36 °C 97.64 % 1,009.15 mbar 2.94 m/s 142.2 Deg 0.65 µg/m3
2021-11-09 13:00 8.32 µg/m3 1.86 µg/m3 54.18 µg/m3 32.15 µg/m3 17.77 µg/m3 22.42 °C 96.38 % 1,008.53 mbar 4.13 m/s 129.42 Deg 1.34 µg/m3
2021-11-09 12:00 1.25 µg/m3 1.74 µg/m3 56.76 µg/m3 35.56 µg/m3 20.48 µg/m3 22.15 °C 99.04 % 1,008.79 mbar 4.05 m/s 127.47 Deg 0.27 µg/m3
2021-11-09 11:00 6.83 µg/m3 1.59 µg/m3 52.21 µg/m3 35.35 µg/m3 30.51 µg/m3 22.26 °C 99.4 % 1,008.76 mbar 4.17 m/s 129.53 Deg 5.16 µg/m3
2021-11-09 10:00 3.24 µg/m3 1.86 µg/m3 52.75 µg/m3 54.9 µg/m3 28.88 µg/m3 22.32 °C 99.95 % 1,008.46 mbar 3.53 m/s 140.35 Deg 0.72 µg/m3
2021-11-09 09:00 13.12 µg/m3 1.93 µg/m3 43.38 µg/m3 49.04 µg/m3 29.2 µg/m3 22.14 °C 99.9 % 1,007.96 mbar 3.03 m/s 147.6 Deg 1.31 µg/m3
2021-11-09 08:00 28.37 µg/m3 1.91 µg/m3 30.29 µg/m3 51.44 µg/m3 21.8 µg/m3 21.97 °C 99.9 % 1,007.37 mbar 2.77 m/s 176.63 Deg 2.89 µg/m3
2021-11-09 07:00 34.36 µg/m3 1.94 µg/m3 21.95 µg/m3 45.27 µg/m3 16.26 µg/m3 21.57 °C 99.9 % 1,006.57 mbar 1.68 m/s 178.12 Deg 1.74 µg/m3
2021-11-09 06:00 15.9 µg/m3 1.81 µg/m3 34.55 µg/m3 40.49 µg/m3 17.46 µg/m3 21.05 °C 99.9 % 1,006.04 mbar 1.09 m/s 185.78 Deg 0.86 µg/m3
2021-11-09 05:00 11.53 µg/m3 1.8 µg/m3 33.63 µg/m3 25.37 µg/m3 15.76 µg/m3 20.74 °C 99.9 % 1,005.42 mbar 1.61 m/s 288.42 Deg 0.98 µg/m3
2021-11-09 04:00 10.06 µg/m3 1.94 µg/m3 35.66 µg/m3 24.28 µg/m3 9.91 µg/m3 20.64 °C 99.9 % 1,005.53 mbar 1.02 m/s 173.38 Deg 0.56 µg/m3
2021-11-09 03:00 7.23 µg/m3 1.85 µg/m3 36.87 µg/m3 20.61 µg/m3 11.67 µg/m3 20.55 °C 99.9 % 1,005.68 mbar 1.08 m/s 256.05 Deg 0.35 µg/m3
2021-11-09 02:00 6.58 µg/m3 1.73 µg/m3 37.35 µg/m3 20.02 µg/m3 17.93 µg/m3 20.97 °C 99.82 % 1,005.74 mbar 0.97 m/s 146.65 Deg 0.25 µg/m3
2021-11-09 01:00 4.35 µg/m3 1.76 µg/m3 48.44 µg/m3 31.98 µg/m3 12.72 µg/m3 21.3 °C 98.57 % 1,005.81 mbar 0.91 m/s 256.58 Deg 0.27 µg/m3
2021-11-09 00:00 5.29 µg/m3 1.74 µg/m3 45.62 µg/m3 24.38 µg/m3 8 µg/m3 21.52 °C 99.92 % 1,005.47 mbar 1.69 m/s 264.2 Deg 0.34 µg/m3
2021-11-08 23:00 8.5 µg/m3 1.85 µg/m3 45.41 µg/m3 27.86 µg/m3 9.26 µg/m3 21.72 °C 97.07 % 1,004.60 mbar 2.12 m/s 223.05 Deg 0.35 µg/m3
2021-11-08 22:00 11.04 µg/m3 1.82 µg/m3 47.71 µg/m3 46.43 µg/m3 8.47 µg/m3 22.07 °C 98.34 % 1,004.35 mbar 2.54 m/s 193.12 Deg 0.32 µg/m3
2021-11-08 21:00 9.46 µg/m3 1.66 µg/m3 45.96 µg/m3 40.68 µg/m3 13.96 µg/m3 22.12 °C 99.96 % 1,004.71 mbar 2.51 m/s 187.73 Deg 0.34 µg/m3
2021-11-08 20:00 6.71 µg/m3 1.72 µg/m3 47.81 µg/m3 27.94 µg/m3 16.17 µg/m3 22.33 °C 99.97 % 1,004.71 mbar 3.98 m/s 177.47 Deg 0.35 µg/m3
2021-11-08 19:00 8.22 µg/m3 1.6 µg/m3 49.01 µg/m3 39.52 µg/m3 18.44 µg/m3 22.32 °C 99.98 % 1,004.22 mbar 4.87 m/s 166.67 Deg 0.36 µg/m3
2021-11-08 18:00 15.53 µg/m3 1.73 µg/m3 42.64 µg/m3 34.75 µg/m3 27.02 µg/m3 22.36 °C 99.52 % 1,003.71 mbar 3.56 m/s 163.63 Deg 0.68 µg/m3
2021-11-08 17:00 10.66 µg/m3 1.91 µg/m3 48.38 µg/m3 35.21 µg/m3 17.4 µg/m3 22.55 °C 97.82 % 1,003.64 mbar 5.16 m/s 165.05 Deg 0.76 µg/m3
2021-11-08 16:00 10.98 µg/m3 1.58 µg/m3 46.08 µg/m3 39.07 µg/m3 13.13 µg/m3 22.66 °C 97.52 % 1,003.00 mbar 4.34 m/s 145.62 Deg 1.11 µg/m3
2021-11-08 15:00 6.4 µg/m3 1.84 µg/m3 50.84 µg/m3 34.67 µg/m3 N/A 22.86 °C 95.18 % 1,003.71 mbar 4.74 m/s 169.62 Deg 0.81 µg/m3
2021-11-08 14:00 10.08 µg/m3 1.94 µg/m3 48.8 µg/m3 34.21 µg/m3 N/A 22.8 °C 94.55 % 1,003.84 mbar 4.29 m/s 175.28 Deg 1.18 µg/m3
2021-11-08 13:00 10.04 µg/m3 1.73 µg/m3 48.83 µg/m3 29.7 µg/m3 N/A 22.8 °C 94.09 % 1,003.93 mbar 4.1 m/s 165.75 Deg 5.66 µg/m3
2021-11-08 12:00 13.23 µg/m3 1.81 µg/m3 47.5 µg/m3 43.17 µg/m3 N/A 22.75 °C 94.34 % 1,004.47 mbar 4.72 m/s 160.35 Deg 2.39 µg/m3
2021-11-08 11:00 8.17 µg/m3 1.67 µg/m3 55.41 µg/m3 44.1 µg/m3 N/A 22.83 °C 93.67 % 1,004.63 mbar 5.24 m/s 152.25 Deg 1.46 µg/m3
2021-11-08 10:00 5.18 µg/m3 1.78 µg/m3 57.48 µg/m3 40.36 µg/m3 N/A 22.61 °C 94.47 % 1,005.32 mbar 4.78 m/s 155.97 Deg 0.75 µg/m3
2021-11-08 09:00 11.74 µg/m3 1.62 µg/m3 49.77 µg/m3 38.68 µg/m3 16.25 µg/m3 22.15 °C 94.41 % 1,005.41 mbar 4.8 m/s 158.43 Deg 2.62 µg/m3
2021-11-08 08:00 9.74 µg/m3 1.75 µg/m3 55.67 µg/m3 40.13 µg/m3 15.39 µg/m3 22.04 °C 93.34 % 1,005.21 mbar 4.51 m/s 161.77 Deg 0.55 µg/m3
2021-11-08 07:00 22.52 µg/m3 1.78 µg/m3 45.95 µg/m3 25.38 µg/m3 18 µg/m3 22.02 °C 92.08 % 1,005.11 mbar 3.95 m/s 168.27 Deg 0.84 µg/m3
2021-11-08 06:00 12.93 µg/m3 1.6 µg/m3 53.57 µg/m3 23.9 µg/m3 12.86 µg/m3 21.63 °C 95.67 % 1,004.92 mbar 3.08 m/s 182.37 Deg 0.29 µg/m3
2021-11-08 05:00 1.12 µg/m3 1.81 µg/m3 63.39 µg/m3 23.84 µg/m3 10.72 µg/m3 21.38 °C 99.65 % 1,004.20 mbar 4.1 m/s 144.65 Deg 0.08 µg/m3
2021-11-08 04:00 0.45 µg/m3 1.8 µg/m3 61.9 µg/m3 33.56 µg/m3 12.97 µg/m3 21.21 °C 99.9 % 1,004.54 mbar 4.64 m/s 132.75 Deg 0.07 µg/m3
2021-11-08 03:00 0.3 µg/m3 1.64 µg/m3 59.94 µg/m3 28.67 µg/m3 14.05 µg/m3 21.28 °C 99.9 % 1,005.03 mbar 4.84 m/s 128.92 Deg 0.08 µg/m3
2021-11-08 02:00 5.08 µg/m3 1.74 µg/m3 50.78 µg/m3 25.23 µg/m3 19.4 µg/m3 21.55 °C 99.9 % 1,005.74 mbar 5.04 m/s 139.13 Deg 0.13 µg/m3
2021-11-08 01:00 1.92 µg/m3 1.77 µg/m3 50.8 µg/m3 30.33 µg/m3 23.14 µg/m3 21.64 °C 99.9 % 1,006.27 mbar 4.44 m/s 141.55 Deg 0.11 µg/m3
2021-11-08 00:00 1.7 µg/m3 1.85 µg/m3 53.61 µg/m3 27.83 µg/m3 13.14 µg/m3 21.75 °C 99.93 % 1,007.41 mbar 4.12 m/s 159.7 Deg 0.12 µg/m3
2021-11-07 23:00 0.8 µg/m3 1.67 µg/m3 55.23 µg/m3 37.79 µg/m3 8.87 µg/m3 21.74 °C 99.53 % 1,007.15 mbar 4.16 m/s 147.62 Deg 0.08 µg/m3
2021-11-07 22:00 1.68 µg/m3 1.52 µg/m3 55.7 µg/m3 25.97 µg/m3 12.22 µg/m3 21.84 °C 98.12 % 1,007.34 mbar 4.61 m/s 156.22 Deg 0.1 µg/m3
2021-11-07 21:00 1 µg/m3 1.76 µg/m3 57.2 µg/m3 26 µg/m3 17.18 µg/m3 21.9 °C 98.18 % 1,006.91 mbar 5.13 m/s 144.55 Deg 0.1 µg/m3
2021-11-07 20:00 1.21 µg/m3 1.72 µg/m3 58.68 µg/m3 41.17 µg/m3 29.85 µg/m3 22.07 °C 98.98 % 1,006.81 mbar 5.23 m/s 139.47 Deg 0.09 µg/m3
2021-11-07 19:00 1.66 µg/m3 1.64 µg/m3 57.43 µg/m3 66.79 µg/m3 32.8 µg/m3 22.1 °C 99.98 % 1,006.99 mbar 4.65 m/s 135.23 Deg 0.15 µg/m3
2021-11-07 18:00 3.73 µg/m3 1.88 µg/m3 52.82 µg/m3 57.28 µg/m3 22.15 µg/m3 22.15 °C 99.97 % 1,007.10 mbar 3.51 m/s 145.8 Deg 0.24 µg/m3
2021-11-07 17:00 6.91 µg/m3 1.79 µg/m3 45.44 µg/m3 42.65 µg/m3 14.99 µg/m3 22.58 °C 97.58 % 1,006.62 mbar 2.61 m/s 81.57 Deg 0.38 µg/m3
2021-11-07 16:00 4.05 µg/m3 2.04 µg/m3 49.68 µg/m3 44.8 µg/m3 17.47 µg/m3 23.04 °C 95.35 % 1,007.71 mbar 1.97 m/s 219.37 Deg 0.37 µg/m3
2021-11-07 15:00 10.06 µg/m3 1.93 µg/m3 47.17 µg/m3 47.65 µg/m3 16.26 µg/m3 23.17 °C 93.8 % 1,006.94 mbar 4.41 m/s 172.07 Deg 1.37 µg/m3
2021-11-07 14:00 11.91 µg/m3 2.02 µg/m3 47.64 µg/m3 43.31 µg/m3 24.03 µg/m3 23.68 °C 88.79 % 1,007.34 mbar 4.5 m/s 189.45 Deg 3.04 µg/m3
2021-11-07 13:00 4.1 µg/m3 1.69 µg/m3 55 µg/m3 56.72 µg/m3 23.52 µg/m3 23.59 °C 89.46 % 1,007.11 mbar 5.87 m/s 167.73 Deg 1.11 µg/m3
2021-11-07 12:00 4.25 µg/m3 1.8 µg/m3 54.12 µg/m3 49.26 µg/m3 20.38 µg/m3 23.47 °C 89.26 % 1,007.75 mbar 5.73 m/s 162 Deg 1.11 µg/m3
2021-11-07 11:00 3.87 µg/m3 2.13 µg/m3 55.07 µg/m3 55.52 µg/m3 32.04 µg/m3 23.51 °C 86.2 % 1,008.32 mbar 6.55 m/s 165.32 Deg 0.87 µg/m3
2021-11-07 10:00 3.46 µg/m3 1.76 µg/m3 55.35 µg/m3 49.42 µg/m3 26.36 µg/m3 23.28 °C 86.34 % 1,008.70 mbar 5.09 m/s 167.63 Deg 0.51 µg/m3
2021-11-07 09:00 5.2 µg/m3 1.76 µg/m3 55.12 µg/m3 53.54 µg/m3 21.43 µg/m3 23.12 °C 84.38 % 1,008.35 mbar 5.77 m/s 162.57 Deg 0.76 µg/m3
2021-11-07 08:00 2.91 µg/m3 1.84 µg/m3 57.98 µg/m3 43.82 µg/m3 24.97 µg/m3 22.89 °C 84.2 % 1,007.99 mbar 5.28 m/s 160.27 Deg 0.57 µg/m3
2021-11-07 07:00 1.93 µg/m3 1.85 µg/m3 61.28 µg/m3 40.28 µg/m3 13.85 µg/m3 22.81 °C 81.56 % 1,007.36 mbar 5.25 m/s 150.37 Deg 0.15 µg/m3
2021-11-07 06:00 1.25 µg/m3 1.97 µg/m3 62.51 µg/m3 29.58 µg/m3 9.24 µg/m3 22.95 °C 80.62 % 1,006.76 mbar 5.9 m/s 145.3 Deg 0.14 µg/m3
2021-11-07 05:00 2.41 µg/m3 1.89 µg/m3 61.86 µg/m3 23.06 µg/m3 11.18 µg/m3 23.04 °C 80.03 % 1,006.55 mbar 6.67 m/s 149.5 Deg 0.12 µg/m3
2021-11-07 04:00 0.75 µg/m3 1.86 µg/m3 62.65 µg/m3 25.07 µg/m3 16.14 µg/m3 22.89 °C 82.27 % 1,006.50 mbar 6.83 m/s 142.2 Deg 0.08 µg/m3
2021-11-07 03:00 0.69 µg/m3 2.01 µg/m3 62.08 µg/m3 33.3 µg/m3 24.37 µg/m3 22.68 °C 85.93 % 1,006.76 mbar 7.12 m/s 139.08 Deg 0.09 µg/m3
2021-11-07 02:00 3.36 µg/m3 1.9 µg/m3 56.08 µg/m3 43.59 µg/m3 16.96 µg/m3 22.63 °C 86.75 % 1,006.96 mbar 6.43 m/s 132.1 Deg 0.12 µg/m3
2021-11-07 01:00 8.68 µg/m3 1.83 µg/m3 52.46 µg/m3 36.75 µg/m3 11.94 µg/m3 22.79 °C 84.1 % 1,007.00 mbar 6.26 m/s 137.85 Deg 0.27 µg/m3
2021-11-07 00:00 8.73 µg/m3 1.79 µg/m3 53.2 µg/m3 26.07 µg/m3 17.78 µg/m3 22.88 °C 83.08 % 1,007.10 mbar 6.38 m/s 138.08 Deg 0.13 µg/m3
2021-11-06 23:00 0.61 µg/m3 1.81 µg/m3 60.74 µg/m3 35.06 µg/m3 29.06 µg/m3 23.02 °C 81.33 % 1,006.90 mbar 6.74 m/s 136.15 Deg 0.05 µg/m3
2021-11-06 22:00 0.75 µg/m3 1.94 µg/m3 60.05 µg/m3 35.19 µg/m3 22.79 µg/m3 22.92 °C 83.86 % 1,006.82 mbar 7.11 m/s 133.85 Deg 0.09 µg/m3
2021-11-06 21:00 1.06 µg/m3 1.76 µg/m3 57 µg/m3 28.16 µg/m3 15.29 µg/m3 23.08 °C 83.22 % 1,006.89 mbar 5.94 m/s 140.37 Deg 0.1 µg/m3
2021-11-06 20:00 7.08 µg/m3 1.75 µg/m3 50.43 µg/m3 33.81 µg/m3 16.26 µg/m3 23.09 °C 84.32 % 1,006.81 mbar 5.83 m/s 152.5 Deg 0.17 µg/m3
2021-11-06 19:00 2.41 µg/m3 1.76 µg/m3 53.61 µg/m3 46.26 µg/m3 18.7 µg/m3 23.01 °C 85.96 % 1,006.65 mbar 6.3 m/s 148.67 Deg 0.21 µg/m3
2021-11-06 18:00 3.18 µg/m3 2 µg/m3 52.55 µg/m3 42.41 µg/m3 15.06 µg/m3 23.09 °C 84.6 % 1,006.59 mbar 5.39 m/s 150.3 Deg 0.43 µg/m3
2021-11-06 17:00 12.86 µg/m3 1.68 µg/m3 45.16 µg/m3 40.1 µg/m3 17.33 µg/m3 23.55 °C 81.55 % 1,006.49 mbar 4.76 m/s 158.13 Deg 1.28 µg/m3
2021-11-06 16:00 2.73 µg/m3 1.77 µg/m3 52.28 µg/m3 48.57 µg/m3 19.82 µg/m3 24.06 °C 79.86 % 1,006.50 mbar 5.35 m/s 161.15 Deg 0.42 µg/m3
2021-11-06 15:00 5.37 µg/m3 1.84 µg/m3 48.82 µg/m3 41.02 µg/m3 19.6 µg/m3 24.09 °C 82.66 % 1,006.75 mbar 4.54 m/s 169.22 Deg 1.03 µg/m3
2021-11-06 14:00 5.4 µg/m3 1.9 µg/m3 48.89 µg/m3 33.78 µg/m3 21.6 µg/m3 24.31 °C 78.97 % 1,007.03 mbar 4.98 m/s 176.63 Deg 0.85 µg/m3
2021-11-06 13:00 2.87 µg/m3 1.88 µg/m3 49.92 µg/m3 38.85 µg/m3 22.17 µg/m3 24.13 °C 81.58 % 1,007.21 mbar 5.12 m/s 170.63 Deg 0.56 µg/m3
2021-11-06 12:00 5.32 µg/m3 2.03 µg/m3 47.4 µg/m3 50.16 µg/m3 20.76 µg/m3 24.06 °C 81.76 % 1,007.47 mbar 5.36 m/s 169.05 Deg 0.89 µg/m3
2021-11-06 11:00 16.72 µg/m3 1.89 µg/m3 36.7 µg/m3 37.1 µg/m3 11.78 µg/m3 24.3 °C 78.77 % 1,007.35 mbar 5.39 m/s 166.03 Deg 5.87 µg/m3
2021-11-06 10:00 7.35 µg/m3 1.81 µg/m3 44.54 µg/m3 33.82 µg/m3 10.73 µg/m3 24.95 °C 73.5 % 1,007.04 mbar 6.56 m/s 160.18 Deg 2.33 µg/m3
2021-11-06 09:00 8.85 µg/m3 1.8 µg/m3 42.95 µg/m3 32.07 µg/m3 15.07 µg/m3 24.35 °C 77.33 % 1,006.96 mbar 5.62 m/s 160.75 Deg 2.26 µg/m3
2021-11-06 08:00 4.8 µg/m3 1.72 µg/m3 43.46 µg/m3 30.82 µg/m3 9.81 µg/m3 23.76 °C 81.04 % 1,006.74 mbar 4.1 m/s 155.25 Deg 0.65 µg/m3
2021-11-06 07:00 3.76 µg/m3 1.89 µg/m3 42.17 µg/m3 31.44 µg/m3 13.38 µg/m3 22.89 °C 86.59 % 1,005.86 mbar 7.1 m/s 121.4 Deg 0.32 µg/m3
2021-11-06 06:00 8.59 µg/m3 1.78 µg/m3 39.1 µg/m3 45.21 µg/m3 21.31 µg/m3 22.66 °C 87.21 % 1,005.74 mbar 5.25 m/s 122.03 Deg 0.24 µg/m3
2021-11-06 05:00 5.69 µg/m3 1.67 µg/m3 43.03 µg/m3 51.24 µg/m3 23.81 µg/m3 22.37 °C 91.22 % 1,005.78 mbar 5.11 m/s 119.8 Deg 0.26 µg/m3
2021-11-06 04:00 8.81 µg/m3 1.68 µg/m3 41.97 µg/m3 69.18 µg/m3 37.71 µg/m3 21.41 °C 98.9 % 1,006.26 mbar 3.95 m/s 192.75 Deg 0.28 µg/m3
2021-11-06 03:00 4.65 µg/m3 1.83 µg/m3 47.52 µg/m3 87.42 µg/m3 43.21 µg/m3 21.24 °C 99.9 % 1,006.52 mbar 2.91 m/s 24.37 Deg 0.25 µg/m3
2021-11-06 02:00 6.35 µg/m3 1.83 µg/m3 41.59 µg/m3 85.99 µg/m3 27.88 µg/m3 21.31 °C 99.74 % 1,006.95 mbar 2.78 m/s 123.37 Deg 0.45 µg/m3
2021-11-06 01:00 21.76 µg/m3 1.81 µg/m3 25.53 µg/m3 80.77 µg/m3 33.91 µg/m3 21.33 °C 99.65 % 1,006.43 mbar 2.59 m/s 176.18 Deg 1.42 µg/m3
2021-11-06 00:00 38.89 µg/m3 1.95 µg/m3 9.34 µg/m3 70.71 µg/m3 23.64 µg/m3 22.28 °C 89.63 % 1,006.37 mbar 1.92 m/s 306.08 Deg 4.96 µg/m3
2021-11-05 23:00 39.76 µg/m3 1.98 µg/m3 9.69 µg/m3 61.52 µg/m3 28.24 µg/m3 22.59 °C 86.35 % 1,005.47 mbar 1.83 m/s 187.78 Deg 7.6 µg/m3
2021-11-05 22:00 46.39 µg/m3 1.98 µg/m3 6.97 µg/m3 56.1 µg/m3 26.04 µg/m3 22.64 °C 84.9 % 1,005.27 mbar 1.36 m/s 295.45 Deg 9.12 µg/m3
2021-11-05 21:00 23.39 µg/m3 2.04 µg/m3 22.66 µg/m3 73.95 µg/m3 36.07 µg/m3 22.2 °C 94.32 % 1,004.99 mbar 2.29 m/s 204.32 Deg 1.98 µg/m3
2021-11-05 20:00 37.45 µg/m3 1.88 µg/m3 9.11 µg/m3 70.25 µg/m3 37.95 µg/m3 22.04 °C 95.9 % 1,005.41 mbar 1.05 m/s 183.83 Deg 8.56 µg/m3
2021-11-05 19:00 42.24 µg/m3 2.01 µg/m3 5.56 µg/m3 66.89 µg/m3 26.36 µg/m3 21.4 °C 99.9 % 1,005.22 mbar 1.67 m/s 204.92 Deg 9.32 µg/m3
2021-11-05 18:00 29.64 µg/m3 1.99 µg/m3 18.09 µg/m3 63.37 µg/m3 23.21 µg/m3 21.27 °C 99.9 % 1,005.18 mbar 1.05 m/s 299.43 Deg 11.46 µg/m3
2021-11-05 17:00 8.95 µg/m3 2.01 µg/m3 37.38 µg/m3 58.24 µg/m3 13.91 µg/m3 21.1 °C 99.9 % 1,004.73 mbar 1.42 m/s 143.94 Deg 0.43 µg/m3
2021-11-05 16:00 4.57 µg/m3 1.78 µg/m3 47.09 µg/m3 51.13 µg/m3 10.77 µg/m3 20.82 °C 99.9 % 1,004.59 mbar 4.35 m/s 132.3 Deg 0.32 µg/m3
2021-11-05 15:00 9.63 µg/m3 1.8 µg/m3 50.41 µg/m3 32 µg/m3 6.91 µg/m3 20.62 °C 99.9 % 1,004.60 mbar 5.7 m/s 120.7 Deg 0.85 µg/m3
2021-11-05 14:00 11.27 µg/m3 1.79 µg/m3 57.14 µg/m3 25.96 µg/m3 6.14 µg/m3 21.22 °C 99.94 % 1,004.83 mbar 3.26 m/s 242.07 Deg 1.49 µg/m3
2021-11-05 13:00 11.29 µg/m3 1.55 µg/m3 62.18 µg/m3 39.34 µg/m3 10.23 µg/m3 21.47 °C 98.46 % 1,005.26 mbar 2.88 m/s 174.32 Deg 2.13 µg/m3
2021-11-05 12:00 14.45 µg/m3 1.85 µg/m3 55.91 µg/m3 40.58 µg/m3 19.3 µg/m3 21.06 °C 99.51 % 1,006.35 mbar 2.67 m/s 200.4 Deg 3.56 µg/m3
2021-11-05 11:00 15.86 µg/m3 1.81 µg/m3 53.46 µg/m3 49.36 µg/m3 32.34 µg/m3 20.88 °C 99.13 % 1,006.93 mbar 2.67 m/s 28.53 Deg 4.45 µg/m3
2021-11-05 10:00 20.57 µg/m3 1.94 µg/m3 43.5 µg/m3 77.16 µg/m3 35.08 µg/m3 20.55 °C 99.91 % 1,007.34 mbar 2.46 m/s 94.8 Deg 7.05 µg/m3
2021-11-05 09:00 31.45 µg/m3 2.07 µg/m3 23.72 µg/m3 80.81 µg/m3 40.94 µg/m3 20.14 °C 99.9 % 1,006.35 mbar 2.01 m/s 31.2 Deg 13.21 µg/m3
2021-11-05 08:00 52.54 µg/m3 2.61 µg/m3 3.63 µg/m3 43.83 µg/m3 27.76 µg/m3 19.38 °C 99.9 % 1,005.53 mbar 1.53 m/s 16.83 Deg 52.23 µg/m3
2021-11-05 07:00 60.2 µg/m3 2.76 µg/m3 2.93 µg/m3 29.21 µg/m3 15.84 µg/m3 19.56 °C 99.9 % 1,005.31 mbar 0.85 m/s 212.42 Deg 72.12 µg/m3
2021-11-05 06:00 42.29 µg/m3 1.77 µg/m3 20.43 µg/m3 34.92 µg/m3 8.84 µg/m3 19.73 °C 99.9 % 1,005.36 mbar 0.89 m/s 155 Deg 13.3 µg/m3
2021-11-05 05:00 26.03 µg/m3 1.75 µg/m3 30.17 µg/m3 30.08 µg/m3 8.12 µg/m3 19.73 °C 99.9 % 1,005.55 mbar 1.46 m/s 222.65 Deg 0.93 µg/m3
2021-11-05 04:00 6.11 µg/m3 1.46 µg/m3 47.3 µg/m3 38.12 µg/m3 10.67 µg/m3 19.7 °C 99.9 % 1,005.45 mbar 1.41 m/s 126.77 Deg 0.22 µg/m3
2021-11-05 03:00 9.78 µg/m3 1.92 µg/m3 40.85 µg/m3 45.63 µg/m3 18.8 µg/m3 19.83 °C 99.9 % 1,005.62 mbar 0.53 m/s 172.7 Deg 0.28 µg/m3
2021-11-05 02:00 7.92 µg/m3 1.75 µg/m3 37.82 µg/m3 55.45 µg/m3 23.53 µg/m3 20.07 °C 99.9 % 1,005.46 mbar 1.03 m/s 186 Deg 0.29 µg/m3
2021-11-05 01:00 10.28 µg/m3 1.83 µg/m3 37.02 µg/m3 70.03 µg/m3 37.54 µg/m3 20.31 °C 99.91 % 1,005.54 mbar 1.2 m/s 169.77 Deg 0.27 µg/m3
2021-11-05 00:00 15.73 µg/m3 1.75 µg/m3 33.94 µg/m3 81.17 µg/m3 36.88 µg/m3 20.38 °C 99.98 % 1,005.67 mbar 0.65 m/s 143.13 Deg 1.96 µg/m3
2021-11-04 23:00 12.94 µg/m3 1.8 µg/m3 39.1 µg/m3 127.77 µg/m3 47.23 µg/m3 20.78 °C 99.62 % 1,005.47 mbar 0.87 m/s 189.62 Deg 0.92 µg/m3
2021-11-04 22:00 8.34 µg/m3 1.77 µg/m3 44.93 µg/m3 150.55 µg/m3 57.93 µg/m3 21.49 °C 99.78 % 1,005.05 mbar 1.5 m/s 278.38 Deg 0.57 µg/m3
2021-11-04 21:00 6.84 µg/m3 1.3 µg/m3 50.68 µg/m3 119.68 µg/m3 39.12 µg/m3 22.02 °C 94.7 % 1,004.64 mbar 1.93 m/s 248.8 Deg 0.56 µg/m3
2021-11-04 20:00 6.27 µg/m3 1.73 µg/m3 62.59 µg/m3 95.4 µg/m3 23.45 µg/m3 22.25 °C 90.6 % 1,004.00 mbar 2.77 m/s 229.77 Deg 0.39 µg/m3
2021-11-04 19:00 7.24 µg/m3 1.96 µg/m3 59.88 µg/m3 68.47 µg/m3 34.57 µg/m3 22.7 °C 89.17 % 1,003.49 mbar 3.34 m/s 215.37 Deg 0.28 µg/m3
2021-11-04 18:00 10.16 µg/m3 1.93 µg/m3 57.6 µg/m3 65.39 µg/m3 27.26 µg/m3 22.95 °C 88.63 % 1,002.91 mbar 4 m/s 210.47 Deg 0.33 µg/m3
2021-11-04 17:00 10.83 µg/m3 1.79 µg/m3 55.01 µg/m3 76.65 µg/m3 36.49 µg/m3 23.31 °C 86.55 % 1,002.40 mbar 4.04 m/s 197.22 Deg 0.59 µg/m3
2021-11-04 16:00 8.6 µg/m3 1.64 µg/m3 59.8 µg/m3 61.18 µg/m3 31.44 µg/m3 24.2 °C 81.43 % 1,002.18 mbar 5.64 m/s 203.88 Deg 1.04 µg/m3
2021-11-04 15:00 7.08 µg/m3 1.72 µg/m3 64.2 µg/m3 41.27 µg/m3 17.36 µg/m3 24.91 °C 75.56 % 1,001.97 mbar 5.41 m/s 195.37 Deg 1.1 µg/m3
2021-11-04 14:00 6.12 µg/m3 2.04 µg/m3 60.23 µg/m3 47.63 µg/m3 21.38 µg/m3 25.26 °C 74.61 % 1,002.36 mbar 5.48 m/s 206.07 Deg 1.33 µg/m3
2021-11-04 13:00 8.58 µg/m3 1.92 µg/m3 53.85 µg/m3 63.79 µg/m3 18.3 µg/m3 24.63 °C 82.64 % 1,002.59 mbar 5.45 m/s 195.68 Deg 1.89 µg/m3
2021-11-04 12:00 6.14 µg/m3 1.68 µg/m3 54.85 µg/m3 59.4 µg/m3 17.15 µg/m3 24.74 °C 81.84 % 1,003.21 mbar 5.15 m/s 192.17 Deg 1.52 µg/m3
2021-11-04 11:00 10.94 µg/m3 1.58 µg/m3 46.77 µg/m3 59.17 µg/m3 15.66 µg/m3 24.78 °C 80.35 % 1,003.62 mbar 5.23 m/s 187.18 Deg 2.98 µg/m3
2021-11-04 10:00 13.01 µg/m3 1.68 µg/m3 42.32 µg/m3 73.4 µg/m3 14.11 µg/m3 24.33 °C 82.99 % 1,003.62 mbar 5.26 m/s 184.15 Deg 3.13 µg/m3
2021-11-04 09:00 12.8 µg/m3 1.61 µg/m3 41.63 µg/m3 71.82 µg/m3 4.2 µg/m3 24.11 °C 85.22 % 1,003.69 mbar 4.52 m/s 190.88 Deg 2.74 µg/m3
2021-11-04 08:00 14.13 µg/m3 1.84 µg/m3 41.76 µg/m3 71.83 µg/m3 0.84 µg/m3 23.81 °C 86.09 % 1,003.22 mbar 4.56 m/s 185.18 Deg 1.85 µg/m3
2021-11-04 07:00 17.72 µg/m3 1.65 µg/m3 38.65 µg/m3 56.72 µg/m3 0.2 µg/m3 23.24 °C 88.22 % 1,003.00 mbar 3.93 m/s 188.92 Deg 0.66 µg/m3
2021-11-04 06:00 20.72 µg/m3 1.61 µg/m3 35.41 µg/m3 66.15 µg/m3 0 µg/m3 23.3 °C 87.25 % 1,003.13 mbar 4.23 m/s 184.82 Deg 0.6 µg/m3
2021-11-04 05:00 20.27 µg/m3 1.56 µg/m3 33.57 µg/m3 65.4 µg/m3 0 µg/m3 23.27 °C 87.44 % 1,003.41 mbar 4.56 m/s 182.65 Deg 0.59 µg/m3
2021-11-04 04:00 27.44 µg/m3 1.65 µg/m3 27.66 µg/m3 56.03 µg/m3 0 µg/m3 23.18 °C 87 % 1,003.65 mbar 3.87 m/s 183.42 Deg 0.92 µg/m3
2021-11-04 03:00 39.11 µg/m3 1.86 µg/m3 21.02 µg/m3 68.14 µg/m3 0 µg/m3 23.14 °C 87.37 % 1,004.20 mbar 3.66 m/s 178.47 Deg 1.39 µg/m3
2021-11-04 02:00 42.09 µg/m3 1.76 µg/m3 22.03 µg/m3 75.63 µg/m3 0 µg/m3 22.97 °C 88.61 % 1,004.55 mbar 3.23 m/s 180.07 Deg 1.1 µg/m3
2021-11-04 01:00 22.91 µg/m3 1.74 µg/m3 39.28 µg/m3 72.68 µg/m3 0 µg/m3 22.58 °C 92.72 % 1,004.73 mbar 3.8 m/s 177.48 Deg 0.51 µg/m3
2021-11-04 00:00 2.21 µg/m3 1.72 µg/m3 61.99 µg/m3 77.92 µg/m3 0 µg/m3 22.05 °C 99.77 % 1,005.12 mbar 3.32 m/s 172 Deg 0.18 µg/m3
2021-11-03 23:00 17.44 µg/m3 1.64 µg/m3 57.9 µg/m3 90.64 µg/m3 0 µg/m3 22.15 °C 99.95 % 1,005.47 mbar 4.38 m/s 172.9 Deg 0.36 µg/m3
2021-11-03 22:00 13.92 µg/m3 1.72 µg/m3 62.36 µg/m3 101.69 µg/m3 0 µg/m3 22.13 °C 99.9 % 1,005.34 mbar 4.88 m/s 180.92 Deg 0.32 µg/m3
2021-11-03 21:00 26.28 µg/m3 1.73 µg/m3 61.27 µg/m3 97.87 µg/m3 0 µg/m3 22.1 °C 99.9 % 1,005.25 mbar 5.28 m/s 182.13 Deg 0.45 µg/m3
2021-11-03 20:00 22.39 µg/m3 1.77 µg/m3 69.85 µg/m3 55.09 µg/m3 0 µg/m3 22.09 °C 99.9 % 1,005.08 mbar 4.81 m/s 181.07 Deg 0.6 µg/m3
2021-11-03 19:00 21.46 µg/m3 1.82 µg/m3 70.5 µg/m3 52.69 µg/m3 32.15 µg/m3 22.12 °C 99.9 % 1,004.79 mbar 4.83 m/s 180.68 Deg 0.39 µg/m3
2021-11-03 18:00 9.73 µg/m3 1.9 µg/m3 76.68 µg/m3 45.57 µg/m3 34.13 µg/m3 22.16 °C 99.9 % 1,004.64 mbar 4.75 m/s 187.47 Deg 0.3 µg/m3
2021-11-03 17:00 8.98 µg/m3 1.81 µg/m3 71.74 µg/m3 44.32 µg/m3 31.68 µg/m3 22.55 °C 99.92 % 1,004.65 mbar 5.01 m/s 190.47 Deg 0.56 µg/m3
2021-11-03 16:00 6.6 µg/m3 1.91 µg/m3 64.7 µg/m3 40.17 µg/m3 14.31 µg/m3 22.97 °C 98.66 % 1,004.95 mbar 5.29 m/s 189.82 Deg 0.75 µg/m3
2021-11-03 15:00 2.27 µg/m3 1.96 µg/m3 62.6 µg/m3 41.89 µg/m3 6.19 µg/m3 23.04 °C 97.89 % 1,005.21 mbar 6.02 m/s 189.53 Deg 0.4 µg/m3
2021-11-03 14:00 5.9 µg/m3 2.03 µg/m3 66.2 µg/m3 15.96 µg/m3 5.16 µg/m3 23.35 °C 90.87 % 1,005.62 mbar 5.4 m/s 186.25 Deg 1.5 µg/m3
2021-11-03 13:00 15.48 µg/m3 1.86 µg/m3 64.23 µg/m3 10.08 µg/m3 6.39 µg/m3 23.36 °C 82.78 % 1,006.32 mbar 6.21 m/s 185.12 Deg 4.05 µg/m3
2021-11-03 12:00 9.81 µg/m3 2.01 µg/m3 68.72 µg/m3 11.93 µg/m3 7.5 µg/m3 23.25 °C 82.31 % 1,007.08 mbar 5.99 m/s 186.55 Deg 2.3 µg/m3
2021-11-03 11:00 11.88 µg/m3 2.09 µg/m3 67.16 µg/m3 16.26 µg/m3 7.36 µg/m3 23.15 °C 81.74 % 1,007.63 mbar 5.07 m/s 186.62 Deg 2.71 µg/m3
2021-11-03 10:00 11.66 µg/m3 2.19 µg/m3 66.88 µg/m3 22.04 µg/m3 6.66 µg/m3 22.87 °C 81.85 % 1,007.71 mbar 4.46 m/s 178.73 Deg 2.4 µg/m3
2021-11-03 09:00 17.34 µg/m3 2.07 µg/m3 61.34 µg/m3 33.7 µg/m3 6.86 µg/m3 22.41 °C 81.69 % 1,007.60 mbar 4.03 m/s 184.05 Deg 3.05 µg/m3
2021-11-03 08:00 27.7 µg/m3 1.92 µg/m3 49.59 µg/m3 18.21 µg/m3 6.32 µg/m3 21.55 °C 84.52 % 1,007.23 mbar 2.72 m/s 180.97 Deg 3.27 µg/m3
2021-11-03 07:00 39.93 µg/m3 2.15 µg/m3 37.99 µg/m3 11.62 µg/m3 7.29 µg/m3 20.78 °C 86.38 % 1,006.97 mbar 2.5 m/s 184.07 Deg 1.33 µg/m3
2021-11-03 06:00 32.93 µg/m3 2.2 µg/m3 41.78 µg/m3 11.47 µg/m3 7.88 µg/m3 20.37 °C 87.88 % 1,007.05 mbar 3.06 m/s 190.47 Deg 0.47 µg/m3
2021-11-03 05:00 42.51 µg/m3 2.22 µg/m3 33.26 µg/m3 13.49 µg/m3 8.71 µg/m3 20.21 °C 86.39 % 1,007.23 mbar 2.75 m/s 188.23 Deg 0.63 µg/m3
2021-11-03 04:00 27.9 µg/m3 2.18 µg/m3 46.04 µg/m3 16.34 µg/m3 10.82 µg/m3 19.93 °C 84.63 % 1,007.26 mbar 2.39 m/s 192.47 Deg 0.31 µg/m3
2021-11-03 03:00 22.36 µg/m3 2.09 µg/m3 45.56 µg/m3 20.82 µg/m3 16.85 µg/m3 19.57 °C 87.4 % 1,007.61 mbar 1.95 m/s 199.95 Deg 0.31 µg/m3
2021-11-03 02:00 17.37 µg/m3 2.18 µg/m3 51.21 µg/m3 19.7 µg/m3 14.12 µg/m3 19.4 °C 87.3 % 1,007.85 mbar 1.74 m/s 207.77 Deg 0.19 µg/m3
2021-11-03 01:00 10.24 µg/m3 2.23 µg/m3 59.64 µg/m3 27.21 µg/m3 9.74 µg/m3 19.51 °C 79.83 % 1,008.18 mbar 1.53 m/s 231.27 Deg 0.22 µg/m3
2021-11-03 00:00 16.52 µg/m3 2.27 µg/m3 51.13 µg/m3 45.51 µg/m3 11.97 µg/m3 19.29 °C 74.67 % 1,008.28 mbar 1.62 m/s 259.3 Deg 0.54 µg/m3
2021-11-02 23:00 27.23 µg/m3 2.36 µg/m3 43.99 µg/m3 48.49 µg/m3 10.81 µg/m3 19.22 °C 78.87 % 1,008.39 mbar 1.99 m/s 301.58 Deg 1.62 µg/m3
2021-11-02 22:00 36.81 µg/m3 2.2 µg/m3 37.65 µg/m3 35.12 µg/m3 6.54 µg/m3 19.34 °C 78.06 % 1,008.37 mbar 1.79 m/s 292.33 Deg 2.75 µg/m3
2021-11-02 21:00 49.57 µg/m3 2.39 µg/m3 27.11 µg/m3 37.36 µg/m3 4.3 µg/m3 19.43 °C 76.46 % 1,008.17 mbar 1.35 m/s 288.93 Deg 3.39 µg/m3
2021-11-02 20:00 65.93 µg/m3 2.22 µg/m3 16.89 µg/m3 33.28 µg/m3 5.43 µg/m3 19.81 °C 73.6 % 1,007.89 mbar 1.1 m/s 301.85 Deg 5.62 µg/m3
2021-11-02 19:00 52.38 µg/m3 2.15 µg/m3 32.71 µg/m3 28.16 µg/m3 6.57 µg/m3 20.26 °C 70.85 % 1,007.43 mbar 1.52 m/s 328.27 Deg 4.75 µg/m3
2021-11-02 18:00 40.75 µg/m3 2.01 µg/m3 43.88 µg/m3 16.86 µg/m3 6.29 µg/m3 20.68 °C 68.68 % 1,006.92 mbar 1.9 m/s 312.1 Deg 3.89 µg/m3
2021-11-02 17:00 24.76 µg/m3 2.14 µg/m3 63.26 µg/m3 20.66 µg/m3 6.77 µg/m3 21.64 °C 65.8 % 1,006.44 mbar 2.98 m/s 313 Deg 3.62 µg/m3
2021-11-02 16:00 14.56 µg/m3 2.17 µg/m3 72.91 µg/m3 19.25 µg/m3 5.85 µg/m3 22.41 °C 62.86 % 1,006.25 mbar 3.22 m/s 312.83 Deg 2.56 µg/m3
2021-11-02 15:00 14.61 µg/m3 2.14 µg/m3 71.9 µg/m3 9.65 µg/m3 7.2 µg/m3 22.79 °C 60.48 % 1,006.16 mbar 3.17 m/s 317.9 Deg 3.79 µg/m3
2021-11-02 14:00 13 µg/m3 2.06 µg/m3 72.19 µg/m3 7.29 µg/m3 8.45 µg/m3 23.03 °C 58.14 % 1,006.28 mbar 3.7 m/s 311.1 Deg 3.76 µg/m3
2021-11-02 13:00 12.46 µg/m3 2.25 µg/m3 71.16 µg/m3 9.49 µg/m3 8.43 µg/m3 23.1 °C 51.39 % 1,006.43 mbar 3.81 m/s 322.83 Deg 3.69 µg/m3
2021-11-02 12:00 12.86 µg/m3 1.93 µg/m3 66.27 µg/m3 12.9 µg/m3 8.13 µg/m3 22.92 °C 56.32 % 1,006.74 mbar 3.88 m/s 320.6 Deg 4.06 µg/m3
2021-11-02 11:00 17.13 µg/m3 1.81 µg/m3 59.45 µg/m3 19.29 µg/m3 9.17 µg/m3 22.62 °C 69.79 % 1,006.94 mbar 3.24 m/s 320.5 Deg 5.96 µg/m3
2021-11-02 10:00 14.71 µg/m3 1.77 µg/m3 57.05 µg/m3 33.88 µg/m3 14.63 µg/m3 22.27 °C 76.4 % 1,006.63 mbar 2.96 m/s 329.08 Deg 4.52 µg/m3
2021-11-02 09:00 17.24 µg/m3 1.9 µg/m3 51.58 µg/m3 29.66 µg/m3 15.05 µg/m3 21.92 °C 79.43 % 1,006.10 mbar 3.22 m/s 317.35 Deg 5.2 µg/m3
2021-11-02 08:00 28.36 µg/m3 1.76 µg/m3 28.47 µg/m3 35.35 µg/m3 23.74 µg/m3 21.58 °C 86.61 % 1,005.57 mbar 2.98 m/s 305.87 Deg 8.27 µg/m3
2021-11-02 07:00 34.61 µg/m3 1.73 µg/m3 25.08 µg/m3 28.92 µg/m3 15.09 µg/m3 21.56 °C 94.26 % 1,005.09 mbar 2.27 m/s 296.6 Deg 6.45 µg/m3
2021-11-02 06:00 10.14 µg/m3 1.78 µg/m3 52.56 µg/m3 18.06 µg/m3 7.33 µg/m3 21.99 °C 91.86 % 1,004.67 mbar 2.15 m/s 283.3 Deg 0.65 µg/m3
2021-11-02 05:00 4.65 µg/m3 1.76 µg/m3 56.51 µg/m3 12.73 µg/m3 8.68 µg/m3 21.82 °C 93.15 % 1,004.40 mbar 1.85 m/s 281.73 Deg 0.23 µg/m3
2021-11-02 04:00 2.61 µg/m3 1.76 µg/m3 58.46 µg/m3 9.76 µg/m3 6.95 µg/m3 21.95 °C 90.87 % 1,004.22 mbar 2.35 m/s 297.52 Deg 0.17 µg/m3
2021-11-02 03:00 1.08 µg/m3 2 µg/m3 60.75 µg/m3 12.13 µg/m3 6.82 µg/m3 21.97 °C 94.63 % 1,004.14 mbar 2.38 m/s 269.6 Deg 0.09 µg/m3
2021-11-02 02:00 1.83 µg/m3 1.69 µg/m3 57.89 µg/m3 19.7 µg/m3 8.35 µg/m3 21.81 °C 98.76 % 1,004.19 mbar 2.1 m/s 260.63 Deg 0.1 µg/m3
2021-11-02 01:00 1.57 µg/m3 1.43 µg/m3 59.19 µg/m3 25.97 µg/m3 10.33 µg/m3 21.91 °C 99.08 % 1,004.70 mbar 1.8 m/s 249.38 Deg 0.1 µg/m3
2021-11-02 00:00 3.9 µg/m3 0.39 µg/m3 57.18 µg/m3 34.81 µg/m3 8.77 µg/m3 21.86 °C 98.63 % 1,005.24 mbar 1.67 m/s 247.95 Deg 0.25 µg/m3
2021-11-01 23:00 5.98 µg/m3 1.88 µg/m3 52.82 µg/m3 29.73 µg/m3 7.98 µg/m3 21.51 °C 98.05 % 1,005.47 mbar 1.55 m/s 242.97 Deg 0.35 µg/m3
2021-11-01 22:00 8.88 µg/m3 1.75 µg/m3 49.75 µg/m3 38.95 µg/m3 10.63 µg/m3 21.53 °C 94.89 % 1,005.13 mbar 1.55 m/s 240.83 Deg 0.47 µg/m3
2021-11-01 21:00 14.41 µg/m3 1.84 µg/m3 47.81 µg/m3 43.61 µg/m3 11.97 µg/m3 21.58 °C 93.58 % 1,005.12 mbar 1.57 m/s 277.18 Deg 0.79 µg/m3
2021-11-01 20:00 30.63 µg/m3 1.72 µg/m3 33.29 µg/m3 45.25 µg/m3 13.9 µg/m3 21.3 °C 94.06 % 1,005.05 mbar 1.79 m/s 294.68 Deg 2.59 µg/m3
2021-11-01 19:00 44.09 µg/m3 1.93 µg/m3 21.48 µg/m3 26.21 µg/m3 7.9 µg/m3 21.43 °C 92.23 % 1,004.72 mbar 1.65 m/s 287.82 Deg 5.32 µg/m3
2021-11-01 18:00 44.7 µg/m3 1.78 µg/m3 22.78 µg/m3 16.04 µg/m3 4.97 µg/m3 21.78 °C 88.94 % 1,004.11 mbar 1.53 m/s 295.23 Deg 6.91 µg/m3
2021-11-01 17:00 23.22 µg/m3 1.93 µg/m3 42.56 µg/m3 14.36 µg/m3 5.78 µg/m3 22.3 °C 87.67 % 1,004.05 mbar 2.55 m/s 297.77 Deg 3.57 µg/m3
2021-11-01 16:00 15.88 µg/m3 1.74 µg/m3 48.5 µg/m3 16.92 µg/m3 6.8 µg/m3 22.71 °C 83.94 % 1,003.81 mbar 3.01 m/s 308.27 Deg 3.63 µg/m3
2021-11-01 15:00 15.51 µg/m3 1.75 µg/m3 46.07 µg/m3 10.99 µg/m3 7.87 µg/m3 22.97 °C 84.52 % 1,003.51 mbar 3.05 m/s 311.12 Deg 5.64 µg/m3
2021-11-01 14:00 13.3 µg/m3 1.86 µg/m3 47.22 µg/m3 12.24 µg/m3 7.41 µg/m3 22.96 °C 84.59 % 1,003.79 mbar 3.88 m/s 300.45 Deg 4.66 µg/m3
2021-11-01 13:00 11.5 µg/m3 1.78 µg/m3 48.19 µg/m3 16.05 µg/m3 9.26 µg/m3 22.88 °C 85.97 % 1,004.12 mbar 4.47 m/s 309.38 Deg 4.75 µg/m3
2021-11-01 12:00 12.69 µg/m3 1.98 µg/m3 45.68 µg/m3 19.48 µg/m3 13.04 µg/m3 23.06 °C 86.82 % 1,004.50 mbar 3.54 m/s 305.67 Deg 5.12 µg/m3
2021-11-01 11:00 12.08 µg/m3 1.83 µg/m3 45.89 µg/m3 29.4 µg/m3 17.81 µg/m3 22.7 °C 88.57 % 1,004.89 mbar 4.07 m/s 300.33 Deg 5.33 µg/m3
2021-11-01 10:00 21.22 µg/m3 1.95 µg/m3 41.85 µg/m3 20.71 µg/m3 11.96 µg/m3 21.17 °C 97.43 % 1,005.00 mbar 2.92 m/s 314.18 Deg 6.97 µg/m3
2021-11-01 09:00 13.45 µg/m3 1.79 µg/m3 57 µg/m3 20.18 µg/m3 11.44 µg/m3 21.16 °C 97.77 % 1,004.81 mbar 2.25 m/s 249.47 Deg 1.18 µg/m3
2021-11-01 08:00 16.45 µg/m3 1.91 µg/m3 52.17 µg/m3 24.37 µg/m3 7.59 µg/m3 20.93 °C 99.58 % 1,004.52 mbar 1.8 m/s 237.9 Deg 1.55 µg/m3
2021-11-01 07:00 12 µg/m3 2.12 µg/m3 57.26 µg/m3 16.06 µg/m3 5.64 µg/m3 20.51 °C 99.51 % 1,004.38 mbar 1.9 m/s 210.02 Deg 0.62 µg/m3
2021-11-01 06:00 4.82 µg/m3 1.96 µg/m3 71.2 µg/m3 8.6 µg/m3 4.49 µg/m3 19.47 °C 99.87 % 1,004.67 mbar 2.42 m/s 186.03 Deg 0.12 µg/m3
2021-11-01 05:00 2.79 µg/m3 1.65 µg/m3 74.53 µg/m3 7.91 µg/m3 5.97 µg/m3 19.55 °C 94.77 % 1,004.96 mbar 3.04 m/s 150.95 Deg 0.01 µg/m3
2021-11-01 04:00 1.24 µg/m3 1.73 µg/m3 76.48 µg/m3 10.34 µg/m3 6.23 µg/m3 19.08 °C 95.62 % 1,005.53 mbar 3.16 m/s 154.22 Deg 0.02 µg/m3
2021-11-01 03:00 0.66 µg/m3 1.9 µg/m3 76.53 µg/m3 11.46 µg/m3 9.32 µg/m3 18.6 °C 97.88 % 1,006.22 mbar 2.71 m/s 141.37 Deg -0.01 µg/m3
2021-11-01 02:00 1.96 µg/m3 1.91 µg/m3 73.5 µg/m3 13.58 µg/m3 14.09 µg/m3 18.13 °C 98.73 % 1,006.79 mbar 2.46 m/s 137.07 Deg 0.01 µg/m3
2021-11-01 01:00 3.27 µg/m3 1.87 µg/m3 70.9 µg/m3 9.82 µg/m3 24.89 µg/m3 17.89 °C 99.01 % 1,007.52 mbar 1.83 m/s 149.22 Deg 0.02 µg/m3
2021-11-01 00:00 2.54 µg/m3 1.89 µg/m3 71.34 µg/m3 10.35 µg/m3 12.42 µg/m3 17.42 °C 99.17 % 1,007.84 mbar 2.28 m/s 151.43 Deg 0.04 µg/m3
2021-10-31 23:00 10.59 µg/m3 1.94 µg/m3 56.29 µg/m3 10.25 µg/m3 5.46 µg/m3 17.38 °C 98.77 % 1,008.53 mbar 0.85 m/s 239.79 Deg 0.1 µg/m3
2021-10-31 22:00 13.78 µg/m3 1.25 µg/m3 58.79 µg/m3 8.59 µg/m3 6.11 µg/m3 18.09 °C 95.9 % 1,009.12 mbar 1.11 m/s 229.27 Deg 0.19 µg/m3
2021-10-31 21:00 6.07 µg/m3 2.01 µg/m3 69.32 µg/m3 12.15 µg/m3 8.04 µg/m3 18.97 °C 98.04 % 1,009.05 mbar 1.79 m/s 173.18 Deg 0.1 µg/m3
2021-10-31 20:00 5.51 µg/m3 1.78 µg/m3 72.3 µg/m3 20.58 µg/m3 10.66 µg/m3 19.27 °C 94.97 % 1,009.17 mbar 2.44 m/s 171.97 Deg 0.1 µg/m3
2021-10-31 19:00 7.31 µg/m3 2.21 µg/m3 72.56 µg/m3 33.01 µg/m3 14.49 µg/m3 19.67 °C 91.52 % 1,009.02 mbar 2.26 m/s 177.08 Deg 0.09 µg/m3
2021-10-31 18:00 5.46 µg/m3 1.97 µg/m3 74.99 µg/m3 25.32 µg/m3 12.01 µg/m3 19.69 °C 94.48 % 1,008.32 mbar 3.86 m/s 161.87 Deg 0.04 µg/m3
2021-10-31 17:00 5.14 µg/m3 1.86 µg/m3 75.33 µg/m3 15.15 µg/m3 12.45 µg/m3 19.74 °C 94.55 % 1,008.48 mbar 4.21 m/s 168.53 Deg 0.1 µg/m3
2021-10-31 16:00 3.84 µg/m3 1.68 µg/m3 76.17 µg/m3 18.15 µg/m3 8.69 µg/m3 19.78 °C 93.28 % 1,008.56 mbar 4.13 m/s 152.43 Deg 0.08 µg/m3
2021-10-31 15:00 6.18 µg/m3 1.88 µg/m3 75.16 µg/m3 19.92 µg/m3 8.26 µg/m3 19.1 °C 98.63 % 1,008.93 mbar 3.24 m/s 159.07 Deg 0.4 µg/m3
2021-10-31 14:00 1.79 µg/m3 1.88 µg/m3 82.29 µg/m3 21.64 µg/m3 8.76 µg/m3 20.03 °C 92.43 % 1,009.24 mbar 3.78 m/s 142 Deg 0.06 µg/m3
2021-10-31 13:00 2.47 µg/m3 1.98 µg/m3 81.04 µg/m3 21.14 µg/m3 10.54 µg/m3 20.26 °C 90.5 % 1,009.76 mbar 3.83 m/s 136.22 Deg 0.22 µg/m3
2021-10-31 12:00 4.22 µg/m3 1.96 µg/m3 78.18 µg/m3 19.13 µg/m3 13.29 µg/m3 20.13 °C 91.76 % 1,010.61 mbar 3.51 m/s 140.02 Deg 0.4 µg/m3
2021-10-31 11:00 6.55 µg/m3 1.69 µg/m3 73.59 µg/m3 25.37 µg/m3 11.31 µg/m3 19.87 °C 89.48 % 1,011.09 mbar 2.39 m/s 152.82 Deg 0.78 µg/m3
2021-10-31 10:00 6.06 µg/m3 1.95 µg/m3 69.07 µg/m3 32.82 µg/m3 15.33 µg/m3 19.48 °C 94.79 % 1,011.45 mbar 2.44 m/s 144.83 Deg 0.46 µg/m3
2021-10-31 09:00 3.2 µg/m3 1.9 µg/m3 70.73 µg/m3 32.13 µg/m3 25.42 µg/m3 19.21 °C 96.61 % 1,011.54 mbar 1.93 m/s 147.38 Deg 0.14 µg/m3
2021-10-31 08:00 10.4 µg/m3 1.95 µg/m3 61.44 µg/m3 37.98 µg/m3 15.06 µg/m3 19.04 °C 96.62 % 1,011.44 mbar 0.79 m/s 229.92 Deg 0.39 µg/m3
2021-10-31 07:00 13.87 µg/m3 2.1 µg/m3 54.92 µg/m3 25.94 µg/m3 15.26 µg/m3 18.68 °C 98.7 % 1,010.97 mbar 0.97 m/s 148.5 Deg 1.09 µg/m3
2021-10-31 06:00 7.47 µg/m3 1.78 µg/m3 59.84 µg/m3 22.61 µg/m3 16.88 µg/m3 18.43 °C 99.9 % 1,010.74 mbar 1.38 m/s 107.42 Deg 0.32 µg/m3
2021-10-31 05:00 11.66 µg/m3 2.02 µg/m3 60.47 µg/m3 33.1 µg/m3 12.48 µg/m3 18.51 °C 99.91 % 1,010.96 mbar 1.05 m/s 132.92 Deg 0.54 µg/m3
2021-10-31 04:00 3.36 µg/m3 1.88 µg/m3 66.81 µg/m3 42.29 µg/m3 15.31 µg/m3 19.22 °C 96.09 % 1,010.97 mbar 1.55 m/s 185.6 Deg 0.05 µg/m3
2021-10-31 03:00 5.71 µg/m3 0.95 µg/m3 62.6 µg/m3 38.77 µg/m3 16.16 µg/m3 19.37 °C 94.68 % 1,011.04 mbar 0.78 m/s 221.1 Deg 0.11 µg/m3
2021-10-31 02:00 4.1 µg/m3 1.3 µg/m3 67.81 µg/m3 43.68 µg/m3 24.69 µg/m3 19.34 °C 94.25 % 1,011.17 mbar 0.93 m/s 244.72 Deg 0.05 µg/m3
2021-10-31 01:00 6.09 µg/m3 1.76 µg/m3 66.67 µg/m3 41.85 µg/m3 23.12 µg/m3 19.39 °C 92.82 % 1,011.31 mbar 0.73 m/s 237.54 Deg 0.08 µg/m3
2021-10-31 00:00 16.24 µg/m3 2.13 µg/m3 55.92 µg/m3 45.29 µg/m3 16.94 µg/m3 19.45 °C 92.95 % 1,011.36 mbar 0.82 m/s 33.73 Deg 0.4 µg/m3
2021-10-30 23:00 15.17 µg/m3 2.01 µg/m3 61.03 µg/m3 44.52 µg/m3 21.22 µg/m3 19.55 °C 93.2 % 1,011.42 mbar 0.86 m/s 45.33 Deg 0.69 µg/m3
2021-10-30 22:00 14.89 µg/m3 2.13 µg/m3 60.51 µg/m3 39.36 µg/m3 18.48 µg/m3 19.56 °C 92.96 % 1,011.42 mbar 1.08 m/s 40.23 Deg 0.58 µg/m3
2021-10-30 21:00 17.17 µg/m3 1.87 µg/m3 61.61 µg/m3 49.07 µg/m3 18.04 µg/m3 19.6 °C 91.55 % 1,010.89 mbar 1.42 m/s 44.17 Deg 1.82 µg/m3
2021-10-30 20:00 14.31 µg/m3 2.13 µg/m3 67.5 µg/m3 39.02 µg/m3 27.6 µg/m3 19.82 °C 88.64 % 1,010.44 mbar 1.78 m/s 33.05 Deg 2.26 µg/m3
2021-10-30 19:00 11.94 µg/m3 2.01 µg/m3 68.34 µg/m3 32.72 µg/m3 14.64 µg/m3 19.84 °C 88.76 % 1,010.12 mbar 1.81 m/s 29.27 Deg 1.57 µg/m3
2021-10-30 18:00 20.29 µg/m3 2.11 µg/m3 61.15 µg/m3 21.61 µg/m3 12.18 µg/m3 19.82 °C 88.33 % 1,009.60 mbar 2.09 m/s 110.18 Deg 2.02 µg/m3
2021-10-30 17:00 13.4 µg/m3 2.09 µg/m3 69.75 µg/m3 13.78 µg/m3 16.55 µg/m3 20.16 °C 86.92 % 1,009.10 mbar 2.73 m/s 98.35 Deg 1.24 µg/m3
2021-10-30 16:00 10.99 µg/m3 1.92 µg/m3 74.71 µg/m3 15.73 µg/m3 6.79 µg/m3 20.82 °C 79.09 % 1,008.47 mbar 3.01 m/s 267.07 Deg 1.31 µg/m3
2021-10-30 15:00 6.92 µg/m3 1.81 µg/m3 80.45 µg/m3 15.98 µg/m3 2.66 µg/m3 21.38 °C 76.13 % 1,008.06 mbar 3.77 m/s 4.17 Deg 1.41 µg/m3
2021-10-30 14:00 12.24 µg/m3 2.15 µg/m3 57.91 µg/m3 23.27 µg/m3 2 µg/m3 21.35 °C 77.16 % 1,007.92 mbar 4.23 m/s 179.82 Deg 1.7 µg/m3
2021-10-30 13:00 6.83 µg/m3 2 µg/m3 79.06 µg/m3 15 µg/m3 3.22 µg/m3 21.14 °C 78.74 % 1,008.23 mbar 4.06 m/s 180.92 Deg 1.81 µg/m3
2021-10-30 12:00 8.13 µg/m3 2.22 µg/m3 74.35 µg/m3 16.69 µg/m3 6.44 µg/m3 20.59 °C 81.26 % 1,008.42 mbar 3.91 m/s 12.87 Deg 2.01 µg/m3
2021-10-30 11:00 10.49 µg/m3 2.05 µg/m3 68.24 µg/m3 28.29 µg/m3 10.23 µg/m3 20.39 °C 78.37 % 1,008.70 mbar 3.49 m/s 180.7 Deg 2.68 µg/m3
2021-10-30 10:00 8.9 µg/m3 2.28 µg/m3 69.56 µg/m3 25.15 µg/m3 4.78 µg/m3 20.71 °C 75.96 % 1,008.27 mbar 4.36 m/s 179.53 Deg 2.84 µg/m3
2021-10-30 09:00 7.97 µg/m3 2.14 µg/m3 69.95 µg/m3 13.63 µg/m3 3.48 µg/m3 20.38 °C 76.07 % 1,007.79 mbar 3.81 m/s 6.88 Deg 1.82 µg/m3
2021-10-30 08:00 8.11 µg/m3 2.13 µg/m3 70.11 µg/m3 11.58 µg/m3 4.68 µg/m3 19.7 °C 77.26 % 1,007.28 mbar 3.85 m/s 11.62 Deg 1.76 µg/m3
2021-10-30 07:00 8.89 µg/m3 2.33 µg/m3 70.33 µg/m3 13.63 µg/m3 7.93 µg/m3 19.62 °C 75.88 % 1,006.74 mbar 4 m/s 354.45 Deg 1.23 µg/m3
2021-10-30 06:00 28.47 µg/m3 2.14 µg/m3 51.84 µg/m3 15.73 µg/m3 12.02 µg/m3 19.49 °C 79.35 % 1,006.09 mbar 3.96 m/s 342.75 Deg 0.92 µg/m3
2021-10-30 05:00 19.61 µg/m3 2.02 µg/m3 59.39 µg/m3 11.17 µg/m3 20.92 µg/m3 19.22 °C 81.44 % 1,005.96 mbar 3.47 m/s 335.83 Deg 0.75 µg/m3
2021-10-30 04:00 8.76 µg/m3 2.23 µg/m3 67.35 µg/m3 7.77 µg/m3 8.94 µg/m3 18.83 °C 83.24 % 1,005.93 mbar 2.8 m/s 328.27 Deg 0.24 µg/m3
2021-10-30 03:00 13.05 µg/m3 1.78 µg/m3 60.82 µg/m3 9.1 µg/m3 5.01 µg/m3 18.66 °C 86.06 % 1,005.95 mbar 2.75 m/s 323.52 Deg 0.26 µg/m3

It is to be noted that the data is provisional and subject to quality assurance procedures. For validated data kindly refer your request to contact.air@era.org.mt